Observation data for Earth on 11/19/2019      Previous  Date       Current Mesonet Observations  Soil Data  Daily Summary Page  Observations in Plain Language
KEA1 190600Z 16001KT 06/M01 A3001 RMK A01 T00561006  RH  064%=      5-min Rain = 0
KEA1 190601Z 15002KT 06/M01 A3001 RMK A01 T00611009  RH  061%=      5-min Rain = 0
KEA1 190602Z 15001KT 07/M01 A3001 RMK A01 T00651011  RH  058%=      5-min Rain = 0
KEA1 190603Z 16001KT 07/M01 A3001 RMK A01 T00671013  RH  057%=      5-min Rain = 0
KEA1 190604Z 16002KT 07/M01 A3001 RMK A01 T00691013  RH  056%=      5-min Rain = 0
KEA1 190605Z 14002KT 07/M02 A3001 RMK A01 T00701015  RH  055%=      5-min Rain = 0
KEA1 190606Z 15002KT 07/M01 A3001 RMK A01 T00711014  RH  055%=      5-min Rain = 0
KEA1 190607Z 15002KT 07/M01 A3001 RMK A01 T00721014  RH  054%=      5-min Rain = 0
KEA1 190608Z 14002KT 07/M02 A3001 RMK A01 T00731015  RH  054%=      5-min Rain = 0
KEA1 190609Z 14002KT 07/M02 A3001 RMK A01 T00721018  RH  053%=      5-min Rain = 0
KEA1 190610Z 13002KT 06/M03 A3001 RMK A01 T00641026  RH  053%=      5-min Rain = 0
KEA1 190611Z 14002KT 05/M03 A3001 RMK A01 T00541030  RH  054%=      5-min Rain = 0
KEA1 190612Z 13003KT 05/M02 A3001 RMK A01 T00471024  RH  060%=      5-min Rain = 0
KEA1 190613Z 13002KT 04/M02 A3001 RMK A01 T00441020  RH  063%=      5-min Rain = 0
KEA1 190614Z 13003KT 04/M02 A3001 RMK A01 T00421020  RH  064%=      5-min Rain = 0
KEA1 190615Z 14003KT 04/M02 A3001 RMK A01 T00431017  RH  065%=      5-min Rain = 0
KEA1 190616Z 13003KT 05/M02 A3001 RMK A01 T00481015  RH  064%=      5-min Rain = 0
KEA1 190617Z 14003KT 05/M02 A3001 RMK A01 T00491015  RH  063%=      5-min Rain = 0
KEA1 190618Z 14003KT 05/M02 A3001 RMK A01 T00461019  RH  063%=      5-min Rain = 0
KEA1 190619Z 14002KT 05/M02 A3001 RMK A01 T00451017  RH  064%=      5-min Rain = 0
KEA1 190620Z 15002KT 05/M02 A3001 RMK A01 T00451018  RH  063%=      5-min Rain = 0
KEA1 190621Z 15002KT 04/M02 A3001 RMK A01 T00431024  RH  062%=      5-min Rain = 0
KEA1 190622Z 15002KT 04/M03 A3001 RMK A01 T00381026  RH  063%=      5-min Rain = 0
KEA1 190623Z 14002KT 04/M03 A3001 RMK A01 T00351026  RH  064%=      5-min Rain = 0
KEA1 190624Z 14002KT 03/M03 A3001 RMK A01 T00331025  RH  066%=      5-min Rain = 0
KEA1 190625Z 14001KT 03/M03 A3001 RMK A01 T00311027  RH  066%=      5-min Rain = 0
KEA1 190626Z 15001KT 03/M03 A3001 RMK A01 T00281028  RH  066%=      5-min Rain = 0
KEA1 190627Z 14000KT 03/M03 A3001 RMK A01 T00261029  RH  067%=      5-min Rain = 0
KEA1 190628Z 00000KT 03/M03 A3001 RMK A01 T00251029  RH  068%=      5-min Rain = 0
KEA1 190629Z 00000KT 02/M03 A3001 RMK A01 T00241029  RH  068%=      5-min Rain = 0
KEA1 190630Z 00000KT 02/M03 A3001 RMK A01 T00241026  RH  069%=      5-min Rain = 0
KEA1 190631Z 00000KT 03/M03 A3001 RMK A01 T00261025  RH  069%=      5-min Rain = 0
KEA1 190632Z 00000KT 03/M03 A3001 RMK A01 T00261025  RH  069%=      5-min Rain = 0
KEA1 190633Z 00000KT 03/M02 A3001 RMK A01 T00271024  RH  069%=      5-min Rain = 0
KEA1 190634Z 00000KT 03/M03 A3001 RMK A01 T00281025  RH  068%=      5-min Rain = 0
KEA1 190635Z 00000KT 03/M03 A3001 RMK A01 T00281026  RH  068%=      5-min Rain = 0
KEA1 190636Z 00000KT 03/M03 A3001 RMK A01 T00271026  RH  068%=      5-min Rain = 0
KEA1 190637Z 00000KT 03/M02 A3001 RMK A01 T00281023  RH  069%=      5-min Rain = 0
KEA1 190638Z 00000KT 03/M02 A3001 RMK A01 T00291022  RH  069%=      5-min Rain = 0
KEA1 190639Z 21000KT 03/M02 A3001 RMK A01 T00321019  RH  070%=      5-min Rain = 0
KEA1 190640Z 19001KT 03/M02 A3001 RMK A01 T00331019  RH  068%=      5-min Rain = 0
KEA1 190641Z 19001KT 03/M02 A3001 RMK A01 T00341019  RH  068%=      5-min Rain = 0
KEA1 190642Z 18001KT 04/M02 A3001 RMK A01 T00351016  RH  069%=      5-min Rain = 0
KEA1 190643Z 17001KT 04/M01 A3001 RMK A01 T00351014  RH  070%=      5-min Rain = 0
KEA1 190644Z 17002KT 04/M01 A3001 RMK A01 T00361014  RH  070%=      5-min Rain = 0
KEA1 190645Z 16001KT 04/M02 A3001 RMK A01 T00351015  RH  070%=      5-min Rain = 0
KEA1 190646Z 16002KT 04/M02 A3001 RMK A01 T00351015  RH  070%=      5-min Rain = 0
KEA1 190647Z 16002KT 03/M01 A3001 RMK A01 T00341014  RH  071%=      5-min Rain = 0
KEA1 190648Z 16002KT 03/M01 A3001 RMK A01 T00331014  RH  071%=      5-min Rain = 0
KEA1 190649Z 16002KT 03/M02 A3001 RMK A01 T00341015  RH  071%=      5-min Rain = 0
KEA1 190650Z 17002KT 03/M02 A3001 RMK A01 T00341015  RH  071%=      5-min Rain = 0
KEA1 190651Z 17001KT 03/M02 A3001 RMK A01 T00341015  RH  070%=      5-min Rain = 0
KEA1 190652Z 17001KT 03/M02 A3001 RMK A01 T00341015  RH  070%=      5-min Rain = 0
KEA1 190653Z 17001KT 03/M02 A3001 RMK A01 T00331016  RH  071%=      5-min Rain = 0
KEA1 190654Z 18001KT 03/M02 A3001 RMK A01 T00321016  RH  071%=      5-min Rain = 0
KEA1 190655Z 20001KT 03/M02 A3001 RMK A01 T00331016  RH  070%=      5-min Rain = 0
KEA1 190656Z 19001KT 03/M02 A3001 RMK A01 T00341016  RH  070%=      5-min Rain = 0
KEA1 190657Z 19001KT 03/M02 A3001 RMK A01 T00341016  RH  070%=      5-min Rain = 0
KEA1 190658Z 18001KT 03/M02 A3001 RMK A01 T00341016  RH  069%=      5-min Rain = 0
KEA1 190659Z 18001KT 03/M02 A3001 RMK A01 T00331018  RH  070%=      5-min Rain = 0
KEA1 190700Z 17001KT 03/M02 A3001 RMK A01 T00321017  RH  070%=      5-min Rain = 0
KEA1 190701Z 18001KT 03/M02 A3001 RMK A01 T00321017  RH  070%=      5-min Rain = 0
KEA1 190702Z 17002KT 03/M02 A3001 RMK A01 T00311019  RH  070%=      5-min Rain = 0
KEA1 190703Z 17002KT 03/M02 A3001 RMK A01 T00291020  RH  070%=      5-min Rain = 0
KEA1 190704Z 17002KT 03/M02 A3001 RMK A01 T00291020  RH  070%=      5-min Rain = 0
KEA1 190705Z 17002KT 03/M02 A3001 RMK A01 T00291019  RH  071%=      5-min Rain = 0
KEA1 190706Z 17002KT 03/M02 A3001 RMK A01 T00301017  RH  071%=      5-min Rain = 0
KEA1 190707Z 17002KT 03/M02 A3001 RMK A01 T00331015  RH  071%=      5-min Rain = 0
KEA1 190708Z 17004KT 04/M01 A3001 RMK A01 T00371014  RH  070%=      5-min Rain = 0
KEA1 190709Z 17004KT 04/M01 A3001 RMK A01 T00441013  RH  067%=      5-min Rain = 0
KEA1 190710Z 16004KT 05/M01 A3001 RMK A01 T00501013  RH  063%=      5-min Rain = 0
KEA1 190711Z 17004KT 06/M01 A3001 RMK A01 T00571014  RH  060%=      5-min Rain = 0
KEA1 190712Z 17004KT 06/M01 A3001 RMK A01 T00621014  RH  058%=      5-min Rain = 0
KEA1 190713Z 17004KT 07/M01 A3001 RMK A01 T00651014  RH  057%=      5-min Rain = 0
KEA1 190714Z 17004KT 07/M02 A3001 RMK A01 T00661015  RH  056%=      5-min Rain = 0
KEA1 190715Z 17004KT 07/M02 A3001 RMK A01 T00681015  RH  056%=      5-min Rain = 0
KEA1 190716Z 17003KT 07/M02 A3001 RMK A01 T00681015  RH  055%=      5-min Rain = 0
KEA1 190717Z 16003KT 07/M02 A3001 RMK A01 T00671015  RH  056%=      5-min Rain = 0
KEA1 190718Z 16004KT 07/M02 A3001 RMK A01 T00661015  RH  056%=      5-min Rain = 0
KEA1 190719Z 16004KT 07/M02 A3001 RMK A01 T00661015  RH  056%=      5-min Rain = 0
KEA1 190720Z 16004KT 07/M02 A3001 RMK A01 T00661015  RH  056%=      5-min Rain = 0
KEA1 190721Z 16005KT 07/M02 A30 RMK A01 T00661015  RH  056%=      5-min Rain = 0
KEA1 190722Z 16006KT 07/M02 A30 RMK A01 T00651015  RH  056%=      5-min Rain = 0
KEA1 190723Z 16007KT 06/M02 A30 RMK A01 T00631017  RH  057%=      5-min Rain = 0
KEA1 190724Z 16007KT 06/M02 A30 RMK A01 T00611018  RH  057%=      5-min Rain = 0
KEA1 190725Z 15008KT 06/M02 A30 RMK A01 T00611018  RH  057%=      5-min Rain = 0
KEA1 190726Z 15008KT 06/M02 A30 RMK A01 T00591019  RH  057%=      5-min Rain = 0
KEA1 190727Z 15008KT 06/M02 A30 RMK A01 T00571021  RH  057%=      5-min Rain = 0
KEA1 190728Z 14008KT 06/M02 A30 RMK A01 T00551021  RH  058%=      5-min Rain = 0
KEA1 190729Z 14007KT 05/M02 A30 RMK A01 T00511023  RH  059%=      5-min Rain = 0
KEA1 190730Z 14007KT 05/M02 A30 RMK A01 T00471024  RH  060%=      5-min Rain = 0
KEA1 190731Z 14007KT 04/M02 A30 RMK A01 T00431024  RH  062%=      5-min Rain = 0
KEA1 190732Z 14007KT 04/M02 A30 RMK A01 T00421022  RH  063%=      5-min Rain = 0
KEA1 190733Z 15006KT 05/M02 A30 RMK A01 T00451019  RH  063%=      5-min Rain = 0
KEA1 190734Z 15005KT 05/M02 A30 RMK A01 T00451019  RH  063%=      5-min Rain = 0
KEA1 190735Z 15005KT 05/M02 A30 RMK A01 T00451019  RH  063%=      5-min Rain = 0
KEA1 190736Z 15005KT 05/M02 A30 RMK A01 T00461019  RH  063%=      5-min Rain = 0
KEA1 190737Z 15004KT 05/M02 A30 RMK A01 T00461020  RH  062%=      5-min Rain = 0
KEA1 190738Z 16004KT 04/M02 A30 RMK A01 T00431022  RH  062%=      5-min Rain = 0
KEA1 190739Z 16004KT 04/M02 A30 RMK A01 T00421023  RH  063%=      5-min Rain = 0
KEA1 190740Z 17004KT 04/M02 A30 RMK A01 T00411022  RH  064%=      5-min Rain = 0
KEA1 190741Z 17004KT 04/M02 A30 RMK A01 T00411022  RH  063%=      5-min Rain = 0
KEA1 190742Z 17004KT 04/M02 A30 RMK A01 T00411022  RH  063%=      5-min Rain = 0
KEA1 190743Z 17004KT 04/M02 A30 RMK A01 T00411024  RH  063%=      5-min Rain = 0
KEA1 190744Z 17004KT 04/M03 A30 RMK A01 T00381027  RH  063%=      5-min Rain = 0
KEA1 190745Z 17003KT 03/M03 A30 RMK A01 T00331029  RH  064%=      5-min Rain = 0
KEA1 190746Z 17003KT 03/M03 A30 RMK A01 T00281031  RH  065%=      5-min Rain = 0
KEA1 190747Z 18002KT 02/M03 A30 RMK A01 T00231032  RH  067%=      5-min Rain = 0
KEA1 190748Z 18002KT 02/M03 A30 RMK A01 T00191034  RH  068%=      5-min Rain = 0
KEA1 190749Z 19001KT 02/M04 A30 RMK A01 T00151035  RH  069%=      5-min Rain = 0
KEA1 190750Z 19001KT 01/M03 A30 RMK A01 T00141032  RH  071%=      5-min Rain = 0
KEA1 190751Z 19000KT 01/M03 A30 RMK A01 T00141031  RH  072%=      5-min Rain = 0
KEA1 190752Z 00000KT 01/M03 A30 RMK A01 T00131031  RH  072%=      5-min Rain = 0
KEA1 190753Z 26001KT 01/M03 A30 RMK A01 T00111032  RH  073%=      5-min Rain = 0
KEA1 190754Z 25001KT 01/M03 A30 RMK A01 T00111031  RH  074%=      5-min Rain = 0
KEA1 190755Z 30001KT 01/M03 A30 RMK A01 T00101031  RH  074%=      5-min Rain = 0
KEA1 190756Z 32002KT 01/M03 A30 RMK A01 T00091033  RH  073%=      5-min Rain = 0
KEA1 190757Z 31002KT 01/M03 A30 RMK A01 T00091032  RH  074%=      5-min Rain = 0
KEA1 190758Z 29002KT 01/M03 A30 RMK A01 T00111028  RH  075%=      5-min Rain = 0
KEA1 190759Z 26002KT 02/M02 A30 RMK A01 T00171022  RH  076%=      5-min Rain = 0
KEA1 190800Z 23002KT 02/M02 A30 RMK A01 T00241017  RH  074%=      5-min Rain = 0
KEA1 190801Z 23002KT 03/M01 A30 RMK A01 T00341012  RH  072%=      5-min Rain = 0
KEA1 190802Z 25001KT 04/M02 A30 RMK A01 T00371017  RH  068%=      5-min Rain = 0
KEA1 190803Z 29002KT 03/M03 A30 RMK A01 T00331025  RH  066%=      5-min Rain = 0
KEA1 190804Z 30002KT 03/M03 A3001 RMK A01 T00271028  RH  067%=      5-min Rain = 0
KEA1 190805Z 29002KT 03/M03 A3001 RMK A01 T00251027  RH  069%=      5-min Rain = 0
KEA1 190806Z 28002KT 02/M03 A3001 RMK A01 T00231026  RH  070%=      5-min Rain = 0
KEA1 190807Z 28003KT 02/M03 A3001 RMK A01 T00231025  RH  070%=      5-min Rain = 0
KEA1 190808Z 27003KT 03/M02 A3001 RMK A01 T00251023  RH  070%=      5-min Rain = 0
KEA1 190809Z 29003KT 03/M02 A3001 RMK A01 T00251024  RH  070%=      5-min Rain = 0
KEA1 190810Z 30003KT 02/M02 A3001 RMK A01 T00241024  RH  070%=      5-min Rain = 0
KEA1 190811Z 30003KT 03/M02 A3001 RMK A01 T00251022  RH  071%=      5-min Rain = 0
KEA1 190812Z 30003KT 03/M02 A3001 RMK A01 T00251022  RH  071%=      5-min Rain = 0
KEA1 190813Z 30004KT 03/M02 A3001 RMK A01 T00251023  RH  071%=      5-min Rain = 0
KEA1 190814Z 30004KT 02/M02 A3001 RMK A01 T00241023  RH  071%=      5-min Rain = 0
KEA1 190815Z 30003KT 02/M02 A3001 RMK A01 T00231024  RH  071%=      5-min Rain = 0
KEA1 190816Z 29003KT 02/M02 A3001 RMK A01 T00221024  RH  072%=      5-min Rain = 0
KEA1 190817Z 28003KT 02/M02 A3001 RMK A01 T00211024  RH  072%=      5-min Rain = 0
KEA1 190818Z 26003KT 02/M02 A3001 RMK A01 T00211022  RH  073%=      5-min Rain = 0
KEA1 190819Z 26003KT 02/M02 A3001 RMK A01 T00211021  RH  074%=      5-min Rain = 0
KEA1 190820Z 27003KT 02/M02 A3001 RMK A01 T00211019  RH  075%=      5-min Rain = 0
KEA1 190821Z 27005KT 02/M02 A3001 RMK A01 T00221016  RH  076%=      5-min Rain = 0
KEA1 190822Z 27006KT 02/M02 A3001 RMK A01 T00221017  RH  075%=      5-min Rain = 0
KEA1 190823Z 27007KT 02/M02 A3001 RMK A01 T00201019  RH  075%=      5-min Rain = 0
KEA1 190824Z 27010KT 02/M02 A3001 RMK A01 T00181024  RH  073%=      5-min Rain = 0
KEA1 190825Z 26011KT 02/M03 A3002 RMK A01 T00151028  RH  073%=      5-min Rain = 0
KEA1 190826Z 26010KT 02/M02 A3002 RMK A01 T00151023  RH  075%=      5-min Rain = 0
KEA1 190827Z 26009KT 02/M02 A3002 RMK A01 T00191020  RH  075%=      5-min Rain = 0
KEA1 190828Z 26009KT 02/M02 A3002 RMK A01 T00211022  RH  073%=      5-min Rain = 0
KEA1 190829Z 26008KT 02/M02 A3002 RMK A01 T00211022  RH  073%=      5-min Rain = 0
KEA1 190830Z 26008KT 02/M02 A3002 RMK A01 T00201023  RH  073%=      5-min Rain = 0
KEA1 190831Z 27009KT 02/M02 A3002 RMK A01 T00201022  RH  074%=      5-min Rain = 0
KEA1 190832Z 27009KT 02/M02 A3002 RMK A01 T00201021  RH  074%=      5-min Rain = 0
KEA1 190833Z 27010KT 02/M02 A3001 RMK A01 T00201020  RH  075%=      5-min Rain = 0
KEA1 190834Z 27009KT 02/M02 A3001 RMK A01 T00211020  RH  075%=      5-min Rain = 0
KEA1 190835Z 26009KT 02/M02 A3001 RMK A01 T00211020  RH  074%=      5-min Rain = 0
KEA1 190836Z 26009KT 02/M02 A3001 RMK A01 T00211020  RH  074%=      5-min Rain = 0
KEA1 190837Z 26008KT 02/M02 A3001 RMK A01 T00211020  RH  074%=      5-min Rain = 0
KEA1 190838Z 26007KT 02/M02 A3001 RMK A01 T00211020  RH  074%=      5-min Rain = 0
KEA1 190839Z 26008KT 02/M02 A3001 RMK A01 T00201021  RH  074%=      5-min Rain = 0
KEA1 190840Z 26010KT 02/M02 A3002 RMK A01 T00191022  RH  074%=      5-min Rain = 0
KEA1 190841Z 26009KT 02/M02 A3001 RMK A01 T00201020  RH  075%=      5-min Rain = 0
KEA1 190842Z 25007KT 02/M02 A3001 RMK A01 T00221018  RH  075%=      5-min Rain = 0
KEA1 190843Z 25006KT 02/M02 A3001 RMK A01 T00241017  RH  074%=      5-min Rain = 0
KEA1 190844Z 26007KT 03/M02 A3001 RMK A01 T00261017  RH  073%=      5-min Rain = 0
KEA1 190845Z 26008KT 03/M02 A3001 RMK A01 T00261019  RH  073%=      5-min Rain = 0
KEA1 190846Z 27008KT 03/M02 A3001 RMK A01 T00261019  RH  072%=      5-min Rain = 0
KEA1 190847Z 27006KT 03/M02 A3001 RMK A01 T00251020  RH  072%=      5-min Rain = 0
KEA1 190848Z 27007KT 03/M02 A3001 RMK A01 T00251020  RH  072%=      5-min Rain = 0
KEA1 190849Z 27006KT 02/M02 A3001 RMK A01 T00241020  RH  072%=      5-min Rain = 0
KEA1 190850Z 26007KT 02/M02 A3001 RMK A01 T00241021  RH  072%=      5-min Rain = 0
KEA1 190851Z 25007KT 03/M02 A3001 RMK A01 T00251021  RH  072%=      5-min Rain = 0
KEA1 190852Z 24006KT 03/M02 A3001 RMK A01 T00261018  RH  072%=      5-min Rain = 0
KEA1 190853Z 23004KT 03/M02 A3001 RMK A01 T00291017  RH  072%=      5-min Rain = 0
KEA1 190854Z 23005KT 03/M02 A3001 RMK A01 T00321015  RH  072%=      5-min Rain = 0
KEA1 190855Z 24004KT 04/M01 A3001 RMK A01 T00381011  RH  070%=      5-min Rain = 0
KEA1 190856Z 24005KT 04/M01 A3001 RMK A01 T00421011  RH  068%=      5-min Rain = 0
KEA1 190857Z 24005KT 05/M01 A3001 RMK A01 T00451012  RH  066%=      5-min Rain = 0
KEA1 190858Z 24005KT 05/M01 A3001 RMK A01 T00451014  RH  066%=      5-min Rain = 0
KEA1 190859Z 25004KT 05/M01 A3001 RMK A01 T00461013  RH  065%=      5-min Rain = 0
KEA1 190900Z 25004KT 05/M01 A3001 RMK A01 T00481012  RH  065%=      5-min Rain = 0
KEA1 190901Z 25004KT 05/M01 A3001 RMK A01 T00491013  RH  064%=      5-min Rain = 0
KEA1 190902Z 26006KT 05/M01 A3001 RMK A01 T00491013  RH  064%=      5-min Rain = 0
KEA1 190903Z 26006KT 05/M01 A3001 RMK A01 T00481014  RH  064%=      5-min Rain = 0
KEA1 190904Z 25005KT 05/M02 A3001 RMK A01 T00461015  RH  064%=      5-min Rain = 0
KEA1 190905Z 25006KT 04/M02 A3001 RMK A01 T00431016  RH  065%=      5-min Rain = 0
KEA1 190906Z 25006KT 04/M02 A3001 RMK A01 T00421015  RH  066%=      5-min Rain = 0
KEA1 190907Z 25006KT 04/M02 A3002 RMK A01 T00421015  RH  066%=      5-min Rain = 0
KEA1 190908Z 26006KT 04/M02 A3002 RMK A01 T00411016  RH  066%=      5-min Rain = 0
KEA1 190909Z 26006KT 04/M02 A3002 RMK A01 T00401016  RH  067%=      5-min Rain = 0
KEA1 190910Z 26006KT 04/M02 A3002 RMK A01 T00391017  RH  067%=      5-min Rain = 0
KEA1 190911Z 26007KT 04/M02 A3002 RMK A01 T00381016  RH  067%=      5-min Rain = 0
KEA1 190912Z 27007KT 04/M02 A3002 RMK A01 T00381016  RH  068%=      5-min Rain = 0
KEA1 190913Z 28006KT 04/M02 A3002 RMK A01 T00391016  RH  067%=      5-min Rain = 0
KEA1 190914Z 28007KT 04/M02 A3002 RMK A01 T00371019  RH  067%=      5-min Rain = 0
KEA1 190915Z 28008KT 03/M02 A3002 RMK A01 T00331022  RH  067%=      5-min Rain = 0
KEA1 190916Z 28008KT 03/M02 A3002 RMK A01 T00301022  RH  069%=      5-min Rain = 0
KEA1 190917Z 28009KT 03/M02 A3002 RMK A01 T00281020  RH  070%=      5-min Rain = 0
KEA1 190918Z 28009KT 03/M02 A3002 RMK A01 T00281020  RH  071%=      5-min Rain = 0
KEA1 190919Z 27010KT 03/M02 A3002 RMK A01 T00271020  RH  071%=      5-min Rain = 0
KEA1 190920Z 27011KT 03/M02 A3002 RMK A01 T00281019  RH  071%=      5-min Rain = 0
KEA1 190921Z 27011KT 03/M02 A3002 RMK A01 T00291018  RH  071%=      5-min Rain = 0
KEA1 190922Z 27011KT 03/M02 A3002 RMK A01 T00301018  RH  071%=      5-min Rain = 0
KEA1 190923Z 27010KT 03/M02 A3002 RMK A01 T00291019  RH  070%=      5-min Rain = 0
KEA1 190924Z 27009KT 03/M02 A3002 RMK A01 T00291020  RH  070%=      5-min Rain = 0
KEA1 190925Z 27008KT 03/M02 A3002 RMK A01 T00301019  RH  070%=      5-min Rain = 0
KEA1 190926Z 28007KT 03/M02 A3001 RMK A01 T00301019  RH  070%=      5-min Rain = 0
KEA1 190927Z 28006KT 03/M02 A3001 RMK A01 T00301020  RH  070%=      5-min Rain = 0
KEA1 190928Z 28006KT 03/M02 A3001 RMK A01 T00301020  RH  070%=      5-min Rain = 0
KEA1 190929Z 28006KT 03/M02 A3001 RMK A01 T00311019  RH  069%=      5-min Rain = 0
KEA1 190930Z 28006KT 03/M02 A3001 RMK A01 T00321020  RH  069%=      5-min Rain = 0
KEA1 190931Z 29006KT 03/M02 A3001 RMK A01 T00311021  RH  069%=      5-min Rain = 0
KEA1 190932Z 29006KT 03/M02 A3001 RMK A01 T00311021  RH  068%=      5-min Rain = 0
KEA1 190933Z 29006KT 03/M02 A3001 RMK A01 T00311022  RH  068%=      5-min Rain = 0
KEA1 190934Z 29005KT 03/M02 A3001 RMK A01 T00301021  RH  069%=      5-min Rain = 0
KEA1 190935Z 29005KT 03/M02 A3001 RMK A01 T00311020  RH  069%=      5-min Rain = 0
KEA1 190936Z 29005KT 03/M02 A3001 RMK A01 T00321019  RH  069%=      5-min Rain = 0
KEA1 190937Z 30004KT 03/M02 A3001 RMK A01 T00321019  RH  069%=      5-min Rain = 0
KEA1 190938Z 31004KT 03/M02 A3001 RMK A01 T00301020  RH  069%=      5-min Rain = 0
KEA1 190939Z 30004KT 03/M02 A3001 RMK A01 T00291021  RH  070%=      5-min Rain = 0
KEA1 190940Z 30004KT 03/M02 A3001 RMK A01 T00281021  RH  070%=      5-min Rain = 0
KEA1 190941Z 29004KT 03/M02 A3001 RMK A01 T00281020  RH  071%=      5-min Rain = 0
KEA1 190942Z 29005KT 03/M02 A3001 RMK A01 T00281020  RH  071%=      5-min Rain = 0
KEA1 190943Z 29004KT 03/M02 A3001 RMK A01 T00291019  RH  071%=      5-min Rain = 0
KEA1 190944Z 29004KT 03/M02 A30 RMK A01 T00311017  RH  070%=      5-min Rain = 0
KEA1 190945Z 29003KT 03/M02 A30 RMK A01 T00331018  RH  069%=      5-min Rain = 0
KEA1 190946Z 28004KT 03/M02 A3001 RMK A01 T00331019  RH  069%=      5-min Rain = 0
KEA1 190947Z 28004KT 03/M02 A3001 RMK A01 T00331019  RH  069%=      5-min Rain = 0
KEA1 190948Z 27004KT 03/M02 A3001 RMK A01 T00321020  RH  069%=      5-min Rain = 0
KEA1 190949Z 27005KT 03/M02 A3001 RMK A01 T00321020  RH  069%=      5-min Rain = 0
KEA1 190950Z 28006KT 03/M02 A3001 RMK A01 T00321019  RH  069%=      5-min Rain = 0
KEA1 190951Z 27005KT 03/M02 A3001 RMK A01 T00311019  RH  070%=      5-min Rain = 0
KEA1 190952Z 27006KT 03/M02 A30 RMK A01 T00281023  RH  069%=      5-min Rain = 0
KEA1 190953Z 27006KT 03/M02 A3001 RMK A01 T00261021  RH  071%=      5-min Rain = 0
KEA1 190954Z 27006KT 03/M02 A3001 RMK A01 T00281017  RH  072%=      5-min Rain = 0
KEA1 190955Z 26007KT 03/M02 A3001 RMK A01 T00301017  RH  071%=      5-min Rain = 0
KEA1 190956Z 26007KT 03/M02 A30 RMK A01 T00291020  RH  070%=      5-min Rain = 0
KEA1 190957Z 26007KT 03/M02 A30 RMK A01 T00271022  RH  070%=      5-min Rain = 0
KEA1 190958Z 26007KT 03/M02 A30 RMK A01 T00271021  RH  071%=      5-min Rain = 0
KEA1 190959Z 26008KT 03/M02 A3001 RMK A01 T00261021  RH  071%=      5-min Rain = 0
KEA1 191000Z 26009KT 03/M02 A3001 RMK A01 T00251021  RH  071%=      5-min Rain = 0
KEA1 191001Z 26009KT 03/M02 A30 RMK A01 T00251021  RH  072%=      5-min Rain = 0
KEA1 191002Z 26009KT 03/M02 A30 RMK A01 T00261020  RH  071%=      5-min Rain = 0
KEA1 191003Z 27008KT 03/M02 A30 RMK A01 T00271020  RH  071%=      5-min Rain = 0
KEA1 191004Z 27008KT 03/M02 A30 RMK A01 T00271021  RH  071%=      5-min Rain = 0
KEA1 191005Z 27008KT 03/M02 A30 RMK A01 T00271020  RH  071%=      5-min Rain = 0
KEA1 191006Z 26007KT 03/M02 A30 RMK A01 T00271020  RH  071%=      5-min Rain = 0
KEA1 191007Z 27007KT 03/M02 A30 RMK A01 T00271020  RH  071%=      5-min Rain = 0
KEA1 191008Z 27007KT 03/M02 A30 RMK A01 T00271021  RH  071%=      5-min Rain = 0
KEA1 191009Z 27006KT 03/M02 A30 RMK A01 T00261021  RH  071%=      5-min Rain = 0
KEA1 191010Z 27005KT 03/M02 A30 RMK A01 T00261022  RH  071%=      5-min Rain = 0
KEA1 191011Z 27005KT 03/M02 A30 RMK A01 T00251022  RH  071%=      5-min Rain = 0
KEA1 191012Z 27005KT 03/M02 A30 RMK A01 T00261021  RH  071%=      5-min Rain = 0
KEA1 191013Z 27004KT 03/M02 A30 RMK A01 T00271020  RH  071%=      5-min Rain = 0
KEA1 191014Z 27004KT 03/M02 A30 RMK A01 T00281021  RH  070%=      5-min Rain = 0
KEA1 191015Z 27004KT 03/M02 A30 RMK A01 T00291020  RH  070%=      5-min Rain = 0
KEA1 191016Z 27005KT 03/M02 A30 RMK A01 T00311019  RH  070%=      5-min Rain = 0
KEA1 191017Z 27004KT 03/M02 A30 RMK A01 T00321019  RH  069%=      5-min Rain = 0
KEA1 191018Z 27005KT 03/M02 A30 RMK A01 T00331020  RH  068%=      5-min Rain = 0
KEA1 191019Z 27005KT 03/M02 A30 RMK A01 T00341019  RH  068%=      5-min Rain = 0
KEA1 191020Z 27004KT 04/M02 A30 RMK A01 T00351019  RH  068%=      5-min Rain = 0
KEA1 191021Z 27004KT 04/M02 A30 RMK A01 T00361019  RH  068%=      5-min Rain = 0
KEA1 191022Z 27004KT 04/M02 A30 RMK A01 T00361019  RH  067%=      5-min Rain = 0
KEA1 191023Z 27004KT 04/M02 A30 RMK A01 T00361021  RH  067%=      5-min Rain = 0
KEA1 191024Z 27003KT 03/M02 A30 RMK A01 T00341021  RH  067%=      5-min Rain = 0
KEA1 191025Z 27004KT 03/M02 A30 RMK A01 T00341021  RH  067%=      5-min Rain = 0
KEA1 191026Z 28003KT 03/M02 A2999 RMK A01 T00331022  RH  067%=      5-min Rain = 0
KEA1 191027Z 28003KT 03/M02 A2999 RMK A01 T00321022  RH  068%=      5-min Rain = 0
KEA1 191028Z 28003KT 03/M02 A2999 RMK A01 T00321022  RH  068%=      5-min Rain = 0
KEA1 191029Z 29003KT 03/M02 A2999 RMK A01 T00321021  RH  068%=      5-min Rain = 0
KEA1 191030Z 29003KT 03/M02 A2999 RMK A01 T00321021  RH  068%=      5-min Rain = 0
KEA1 191031Z 29003KT 03/M02 A2999 RMK A01 T00311022  RH  069%=      5-min Rain = 0
KEA1 191032Z 29003KT 03/M02 A2999 RMK A01 T00301021  RH  069%=      5-min Rain = 0
KEA1 191033Z 30003KT 03/M02 A2999 RMK A01 T00281023  RH  069%=      5-min Rain = 0
KEA1 191034Z 29003KT 03/M02 A2999 RMK A01 T00261023  RH  070%=      5-min Rain = 0
KEA1 191035Z 28004KT 03/M02 A2999 RMK A01 T00261021  RH  071%=      5-min Rain = 0
KEA1 191036Z 28004KT 03/M02 A2999 RMK A01 T00291019  RH  071%=      5-min Rain = 0
KEA1 191037Z 28004KT 03/M02 A2999 RMK A01 T00311019  RH  070%=      5-min Rain = 0
KEA1 191038Z 29003KT 03/M02 A2999 RMK A01 T00311019  RH  069%=      5-min Rain = 0
KEA1 191039Z 28004KT 03/M02 A2999 RMK A01 T00311019  RH  069%=      5-min Rain = 0
KEA1 191040Z 27004KT 03/M02 A2999 RMK A01 T00311019  RH  069%=      5-min Rain = 0
KEA1 191041Z 28004KT 03/M02 A2999 RMK A01 T00311019  RH  070%=      5-min Rain = 0
KEA1 191042Z 28004KT 03/M02 A2999 RMK A01 T00301019  RH  071%=      5-min Rain = 0
KEA1 191043Z 28004KT 03/M02 A2999 RMK A01 T00301019  RH  070%=      5-min Rain = 0
KEA1 191044Z 28004KT 03/M02 A2999 RMK A01 T00291019  RH  071%=      5-min Rain = 0
KEA1 191045Z 28004KT 03/M02 A2999 RMK A01 T00291019  RH  071%=      5-min Rain = 0
KEA1 191046Z 28005KT 03/M02 A2999 RMK A01 T00291019  RH  071%=      5-min Rain = 0
KEA1 191047Z 27005KT 03/M02 A2999 RMK A01 T00281019  RH  071%=      5-min Rain = 0
KEA1 191048Z 28005KT 03/M02 A2999 RMK A01 T00281019  RH  071%=      5-min Rain = 0
KEA1 191049Z 27004KT 03/M02 A2999 RMK A01 T00271021  RH  071%=      5-min Rain = 0
KEA1 191050Z 28004KT 03/M02 A2999 RMK A01 T00261022  RH  071%=      5-min Rain = 0
KEA1 191051Z 28004KT 03/M02 A2999 RMK A01 T00251022  RH  071%=      5-min Rain = 0
KEA1 191052Z 28005KT 03/M02 A2999 RMK A01 T00261022  RH  071%=      5-min Rain = 0
KEA1 191053Z 28005KT 03/M02 A2999 RMK A01 T00261022  RH  070%=      5-min Rain = 0
KEA1 191054Z 27005KT 02/M02 A2999 RMK A01 T00241024  RH  071%=      5-min Rain = 0
KEA1 191055Z 28005KT 02/M02 A2999 RMK A01 T00231024  RH  072%=      5-min Rain = 0
KEA1 191056Z 28006KT 02/M02 A2999 RMK A01 T00221023  RH  072%=      5-min Rain = 0
KEA1 191057Z 28006KT 02/M02 A2999 RMK A01 T00211024  RH  072%=      5-min Rain = 0
KEA1 191058Z 28006KT 02/M02 A2999 RMK A01 T00201024  RH  073%=      5-min Rain = 0
KEA1 191059Z 28006KT 02/M02 A2999 RMK A01 T00181023  RH  074%=      5-min Rain = 0
KEA1 191100Z 28005KT 02/M02 A2999 RMK A01 T00201021  RH  074%=      5-min Rain = 0
KEA1 191101Z 28005KT 02/M02 A2999 RMK A01 T00201022  RH  074%=      5-min Rain = 0
KEA1 191102Z 28006KT 02/M02 A2999 RMK A01 T00201023  RH  073%=      5-min Rain = 0
KEA1 191103Z 28006KT 02/M02 A2999 RMK A01 T00191024  RH  073%=      5-min Rain = 0
KEA1 191104Z 27006KT 02/M02 A2999 RMK A01 T00181024  RH  074%=      5-min Rain = 0
KEA1 191105Z 28006KT 02/M02 A2999 RMK A01 T00181023  RH  074%=      5-min Rain = 0
KEA1 191106Z 28006KT 02/M02 A2999 RMK A01 T00181023  RH  074%=      5-min Rain = 0
KEA1 191107Z 28006KT 02/M02 A2999 RMK A01 T00181023  RH  074%=      5-min Rain = 0
KEA1 191108Z 28006KT 02/M02 A2999 RMK A01 T00181023  RH  074%=      5-min Rain = 0
KEA1 191109Z 27005KT 02/M02 A2999 RMK A01 T00181023  RH  074%=      5-min Rain = 0
KEA1 191110Z 27006KT 02/M02 A2999 RMK A01 T00171024  RH  074%=      5-min Rain = 0
KEA1 191111Z 28006KT 02/M02 A2999 RMK A01 T00171023  RH  075%=      5-min Rain = 0
KEA1 191112Z 27006KT 02/M02 A2999 RMK A01 T00171023  RH  075%=      5-min Rain = 0
KEA1 191113Z 27006KT 02/M02 A2999 RMK A01 T00181022  RH  075%=      5-min Rain = 0
KEA1 191114Z 27006KT 02/M02 A2999 RMK A01 T00191022  RH  074%=      5-min Rain = 0
KEA1 191115Z 27005KT 02/M02 A2999 RMK A01 T00191022  RH  074%=      5-min Rain = 0
KEA1 191116Z 27006KT 02/M02 A2999 RMK A01 T00191023  RH  074%=      5-min Rain = 0
KEA1 191117Z 27006KT 02/M02 A2999 RMK A01 T00181023  RH  074%=      5-min Rain = 0
KEA1 191118Z 26006KT 02/M02 A2999 RMK A01 T00181023  RH  074%=      5-min Rain = 0
KEA1 191119Z 27005KT 02/M02 A2999 RMK A01 T00181023  RH  075%=      5-min Rain = 0
KEA1 191120Z 27005KT 02/M02 A2999 RMK A01 T00171022  RH  075%=      5-min Rain = 0
KEA1 191121Z 27005KT 02/M02 A2999 RMK A01 T00171023  RH  075%=      5-min Rain = 0
KEA1 191122Z 26006KT 02/M02 A2999 RMK A01 T00161023  RH  075%=      5-min Rain = 0
KEA1 191123Z 25005KT 02/M02 A2999 RMK A01 T00161023  RH  075%=      5-min Rain = 0
KEA1 191124Z 27004KT 02/M02 A2999 RMK A01 T00161023  RH  075%=      5-min Rain = 0
KEA1 191125Z 26005KT 02/M02 A2999 RMK A01 T00161023  RH  075%=      5-min Rain = 0
KEA1 191126Z 26004KT 02/M02 A2999 RMK A01 T00161023  RH  075%=      5-min Rain = 0
KEA1 191127Z 26004KT 02/M02 A2999 RMK A01 T00161024  RH  075%=      5-min Rain = 0
KEA1 191128Z 27005KT 02/M02 A2998 RMK A01 T00151024  RH  075%=      5-min Rain = 0
KEA1 191129Z 26004KT 02/M02 A2998 RMK A01 T00151023  RH  076%=      5-min Rain = 0
KEA1 191130Z 27004KT 02/M02 A2998 RMK A01 T00161022  RH  076%=      5-min Rain = 0
KEA1 191131Z 26003KT 02/M02 A2998 RMK A01 T00171021  RH  076%=      5-min Rain = 0
KEA1 191132Z 25003KT 02/M02 A2998 RMK A01 T00181021  RH  075%=      5-min Rain = 0
KEA1 191133Z 24002KT 02/M02 A2998 RMK A01 T00201021  RH  074%=      5-min Rain = 0
KEA1 191134Z 24002KT 02/M02 A2998 RMK A01 T00201021  RH  074%=      5-min Rain = 0
KEA1 191135Z 24002KT 02/M02 A2998 RMK A01 T00201022  RH  074%=      5-min Rain = 0
KEA1 191136Z 24002KT 02/M02 A2998 RMK A01 T00211022  RH  073%=      5-min Rain = 0
KEA1 191137Z 25002KT 02/M02 A2998 RMK A01 T00211022  RH  073%=      5-min Rain = 0
KEA1 191138Z 25002KT 02/M02 A2998 RMK A01 T00201023  RH  073%=      5-min Rain = 0
KEA1 191139Z 25002KT 02/M02 A2998 RMK A01 T00191024  RH  073%=      5-min Rain = 0
KEA1 191140Z 25002KT 02/M03 A2998 RMK A01 T00191025  RH  073%=      5-min Rain = 0
KEA1 191141Z 25001KT 02/M03 A2998 RMK A01 T00171025  RH  073%=      5-min Rain = 0
KEA1 191142Z 25000KT 02/M03 A2998 RMK A01 T00171025  RH  074%=      5-min Rain = 0
KEA1 191143Z 00000KT 02/M03 A2997 RMK A01 T00161026  RH  074%=      5-min Rain = 0
KEA1 191144Z 00000KT 02/M03 A2997 RMK A01 T00161025  RH  074%=      5-min Rain = 0
KEA1 191145Z 31001KT 02/M03 A2997 RMK A01 T00151025  RH  075%=      5-min Rain = 0
KEA1 191146Z 31002KT 01/M03 A2997 RMK A01 T00141028  RH  074%=      5-min Rain = 0
KEA1 191147Z 31002KT 01/M03 A2997 RMK A01 T00091033  RH  074%=      5-min Rain = 0
KEA1 191148Z 30002KT 01/M03 A2997 RMK A01 T00061032  RH  076%=      5-min Rain = 0
KEA1 191149Z 30002KT 00/M03 A2997 RMK A01 T00031031  RH  077%=      5-min Rain = 0
KEA1 191150Z 30002KT 00/M03 A2997 RMK A01 T00021031  RH  078%=      5-min Rain = 0
KEA1 191151Z 31002KT 00/M03 A2997 RMK A01 T00011031  RH  079%=      5-min Rain = 0
KEA1 191152Z 33003KT M00/M03 A2997 RMK A01 T10011033  RH  079%=      5-min Rain = 0
KEA1 191153Z 34003KT M00/M04 A2997 RMK A01 T10041037  RH  079%=      5-min Rain = 0
KEA1 191154Z 34003KT M01/M04 A2997 RMK A01 T10051037  RH  079%=      5-min Rain = 0
KEA1 191155Z 33003KT M01/M04 A2997 RMK A01 T10071037  RH  080%=      5-min Rain = 0
KEA1 191156Z 32003KT M01/M04 A2997 RMK A01 T10081036  RH  081%=      5-min Rain = 0
KEA1 191157Z 30003KT M01/M03 A2997 RMK A01 T10071033  RH  083%=      5-min Rain = 0
KEA1 191158Z 30003KT M00/M03 A2997 RMK A01 T10031026  RH  084%=      5-min Rain = 0
KEA1 191159Z 29003KT 00/M02 A2997 RMK A01 T00021021  RH  084%=      5-min Rain = 0
KEA1 191200Z 29004KT 00/M03 A2997 RMK A01 T00031026  RH  081%=      5-min Rain = 0
KEA1 191201Z 29004KT 00/03 A2997 RMK A01 T00-00-34  RH  078%=      5-min Rain = 0
KEA1 191202Z 29004KT M00/M04 A2997 RMK A01 T10041037  RH  078%=      5-min Rain = 0
KEA1 191203Z 29005KT M01/M04 A2997 RMK A01 T10061037  RH  080%=      5-min Rain = 0
KEA1 191204Z 28005KT M01/M03 A2997 RMK A01 T10061034  RH  081%=      5-min Rain = 0
KEA1 191205Z 27005KT M01/M03 A2997 RMK A01 T10051032  RH  082%=      5-min Rain = 0
KEA1 191206Z 27005KT 00/03 A2997 RMK A01 T00-00-25  RH  083%=      5-min Rain = 0
KEA1 191207Z 27005KT 00/M02 A2997 RMK A01 T00031022  RH  083%=      5-min Rain = 0
KEA1 191208Z 27005KT 00/M03 A2997 RMK A01 T00041025  RH  081%=      5-min Rain = 0
KEA1 191209Z 28005KT 00/M03 A2997 RMK A01 T00041027  RH  080%=      5-min Rain = 0
KEA1 191210Z 28005KT 00/M03 A2997 RMK A01 T00021029  RH  080%=      5-min Rain = 0
KEA1 191211Z 28005KT 00/M03 A2997 RMK A01 T00021028  RH  080%=      5-min Rain = 0
KEA1 191212Z 27005KT 00/M03 A2997 RMK A01 T00021029  RH  079%=      5-min Rain = 0
KEA1 191213Z 27005KT 00/M03 A2997 RMK A01 T00021030  RH  079%=      5-min Rain = 0
KEA1 191214Z 27004KT 00/M03 A2997 RMK A01 T00011031  RH  079%=      5-min Rain = 0
KEA1 191215Z 26004KT 00/M03 A2997 RMK A01 T00011031  RH  079%=      5-min Rain = 0
KEA1 191216Z 27004KT 00/M03 A2997 RMK A01 T00011030  RH  079%=      5-min Rain = 0
KEA1 191217Z 27004KT 00/M03 A2997 RMK A01 T00011031  RH  079%=      5-min Rain = 0
KEA1 191218Z 27004KT 00/M03 A2997 RMK A01 T00011030  RH  079%=      5-min Rain = 0
KEA1 191219Z 27004KT 00/M03 A2997 RMK A01 T00021030  RH  080%=      5-min Rain = 0
KEA1 191220Z 27004KT 00/M03 A2997 RMK A01 T00021029  RH  080%=      5-min Rain = 0
KEA1 191221Z 27004KT 00/M03 A2997 RMK A01 T00031028  RH  080%=      5-min Rain = 0
KEA1 191222Z 26004KT 00/M03 A2997 RMK A01 T00031028  RH  080%=      5-min Rain = 0
KEA1 191223Z 26005KT 00/M03 A2997 RMK A01 T00031028  RH  080%=      5-min Rain = 0
KEA1 191224Z 25004KT 00/M03 A2997 RMK A01 T00031027  RH  080%=      5-min Rain = 0
KEA1 191225Z 25004KT 00/M03 A2997 RMK A01 T00041026  RH  080%=      5-min Rain = 0
KEA1 191226Z 25004KT 01/M03 A2997 RMK A01 T00051026  RH  080%=      5-min Rain = 0
KEA1 191227Z 25004KT 01/M03 A2997 RMK A01 T00051026  RH  080%=      5-min Rain = 0
KEA1 191228Z 25004KT 01/M03 A2997 RMK A01 T00051027  RH  079%=      5-min Rain = 0
KEA1 191229Z 25004KT 01/M03 A2997 RMK A01 T00051026  RH  079%=      5-min Rain = 0
KEA1 191230Z 25004KT 01/M03 A2997 RMK A01 T00061026  RH  079%=      5-min Rain = 0
KEA1 191231Z 25004KT 01/M03 A2997 RMK A01 T00061026  RH  079%=      5-min Rain = 0
KEA1 191232Z 26004KT 01/M03 A2997 RMK A01 T00071025  RH  079%=      5-min Rain = 0
KEA1 191233Z 26005KT 01/M03 A2997 RMK A01 T00071025  RH  079%=      5-min Rain = 0
KEA1 191234Z 26006KT 01/M03 A2997 RMK A01 T00081025  RH  079%=      5-min Rain = 0
KEA1 191235Z 26006KT 01/M03 A2997 RMK A01 T00071026  RH  079%=      5-min Rain = 0
KEA1 191236Z 26006KT 01/M03 A2997 RMK A01 T00071026  RH  079%=      5-min Rain = 0
KEA1 191237Z 26006KT 01/M03 A2997 RMK A01 T00071027  RH  078%=      5-min Rain = 0
KEA1 191238Z 26006KT 01/M03 A2997 RMK A01 T00061028  RH  078%=      5-min Rain = 0
KEA1 191239Z 26007KT 01/M03 A2997 RMK A01 T00061028  RH  078%=      5-min Rain = 0
KEA1 191240Z 26007KT 01/M03 A2998 RMK A01 T00051029  RH  078%=      5-min Rain = 0
KEA1 191241Z 26006KT 00/M03 A2998 RMK A01 T00041030  RH  078%=      5-min Rain = 0
KEA1 191242Z 26007KT 00/M03 A2998 RMK A01 T00031031  RH  078%=      5-min Rain = 0
KEA1 191243Z 26007KT 00/M03 A2998 RMK A01 T00021030  RH  079%=      5-min Rain = 0
KEA1 191244Z 26006KT 00/M03 A2997 RMK A01 T00031028  RH  080%=      5-min Rain = 0
KEA1 191245Z 26006KT 00/M03 A2998 RMK A01 T00041026  RH  080%=      5-min Rain = 0
KEA1 191246Z 26006KT 01/M03 A2998 RMK A01 T00051027  RH  079%=      5-min Rain = 0
KEA1 191247Z 26006KT 00/M03 A2998 RMK A01 T00041028  RH  079%=      5-min Rain = 0
KEA1 191248Z 26006KT 00/M03 A2998 RMK A01 T00031028  RH  080%=      5-min Rain = 0
KEA1 191249Z 26006KT 00/M03 A2998 RMK A01 T00031027  RH  080%=      5-min Rain = 0
KEA1 191250Z 26006KT 00/M03 A2998 RMK A01 T00041025  RH  080%=      5-min Rain = 0
KEA1 191251Z 26006KT 01/M02 A2998 RMK A01 T00071023  RH  080%=      5-min Rain = 0
KEA1 191252Z 25005KT 01/M02 A2998 RMK A01 T00091023  RH  080%=      5-min Rain = 0
KEA1 191253Z 24004KT 01/M02 A2998 RMK A01 T00101023  RH  079%=      5-min Rain = 0
KEA1 191254Z 24004KT 01/M02 A2998 RMK A01 T00111023  RH  078%=      5-min Rain = 0
KEA1 191255Z 25004KT 01/M02 A2998 RMK A01 T00111023  RH  078%=      5-min Rain = 0
KEA1 191256Z 25004KT 01/M02 A2998 RMK A01 T00111024  RH  077%=      5-min Rain = 0
KEA1 191257Z 25003KT 01/M02 A2998 RMK A01 T00111024  RH  078%=      5-min Rain = 0
KEA1 191258Z 25003KT 01/M02 A2998 RMK A01 T00111023  RH  078%=      5-min Rain = 0
KEA1 191259Z 25004KT 01/M02 A2998 RMK A01 T00121022  RH  078%=      5-min Rain = 0
KEA1 191300Z 25004KT 01/M02 A2998 RMK A01 T00131022  RH  077%=      5-min Rain = 0
KEA1 191301Z 24004KT 01/M02 A2998 RMK A01 T00141023  RH  077%=      5-min Rain = 0
KEA1 191302Z 24004KT 01/M02 A2997 RMK A01 T00141023  RH  076%=      5-min Rain = 0
KEA1 191303Z 24004KT 01/M02 A2997 RMK A01 T00141023  RH  076%=      5-min Rain = 0
KEA1 191304Z 23003KT 01/M02 A2997 RMK A01 T00141022  RH  077%=      5-min Rain = 0
KEA1 191305Z 22003KT 02/M02 A2997 RMK A01 T00151022  RH  076%=      5-min Rain = 0
KEA1 191306Z 22003KT 02/M02 A2997 RMK A01 T00161022  RH  076%=      5-min Rain = 0
KEA1 191307Z 22002KT 02/M02 A2997 RMK A01 T00161021  RH  076%=      5-min Rain = 0
KEA1 191308Z 21003KT 02/M02 A2997 RMK A01 T00171021  RH  076%=      5-min Rain = 0
KEA1 191309Z 20002KT 02/M02 A2997 RMK A01 T00181021  RH  076%=      5-min Rain = 0
KEA1 191310Z 20002KT 02/M02 A2997 RMK A01 T00181021  RH  075%=      5-min Rain = 0
KEA1 191311Z 20002KT 02/M02 A2997 RMK A01 T00191020  RH  075%=      5-min Rain = 0
KEA1 191312Z 21002KT 02/M02 A2997 RMK A01 T00201020  RH  075%=      5-min Rain = 0
KEA1 191313Z 20002KT 02/M02 A2997 RMK A01 T00201020  RH  075%=      5-min Rain = 0
KEA1 191314Z 19003KT 02/M02 A2997 RMK A01 T00211020  RH  074%=      5-min Rain = 0
KEA1 191315Z 20002KT 02/M02 A2997 RMK A01 T00221020  RH  074%=      5-min Rain = 0
KEA1 191316Z 20001KT 02/M02 A2997 RMK A01 T00221020  RH  073%=      5-min Rain = 0
KEA1 191317Z 20000KT 02/M02 A2998 RMK A01 T00221022  RH  073%=      5-min Rain = 0
KEA1 191318Z 00000KT 02/M02 A2998 RMK A01 T00211024  RH  072%=      5-min Rain = 0
KEA1 191319Z 00000KT 02/M02 A2998 RMK A01 T00211023  RH  073%=      5-min Rain = 0
KEA1 191320Z 32000KT 02/M03 A2998 RMK A01 T00201025  RH  072%=      5-min Rain = 0
KEA1 191321Z 32001KT 02/M03 A2998 RMK A01 T00171031  RH  071%=      5-min Rain = 0
KEA1 191322Z 30002KT 01/M04 A2998 RMK A01 T00101039  RH  070%=      5-min Rain = 0
KEA1 191323Z 32003KT 00/M04 A2998 RMK A01 T00031040  RH  073%=      5-min Rain = 0
KEA1 191324Z 30004KT 00/M04 A2998 RMK A01 T00011035  RH  077%=      5-min Rain = 0
KEA1 191325Z 29004KT 00/M03 A2998 RMK A01 T00041026  RH  080%=      5-min Rain = 0
KEA1 191326Z 28004KT 01/M03 A2998 RMK A01 T00071025  RH  079%=      5-min Rain = 0
KEA1 191327Z 27005KT 01/M03 A2998 RMK A01 T00081027  RH  078%=      5-min Rain = 0
KEA1 191328Z 25003KT 01/M03 A2997 RMK A01 T00091026  RH  078%=      5-min Rain = 0
KEA1 191329Z 24002KT 01/M03 A2997 RMK A01 T00101025  RH  077%=      5-min Rain = 0
KEA1 191330Z 23002KT 01/M03 A2997 RMK A01 T00121025  RH  077%=      5-min Rain = 0
KEA1 191331Z 22003KT 01/M02 A2997 RMK A01 T00141023  RH  076%=      5-min Rain = 0
KEA1 191332Z 21003KT 02/M02 A2997 RMK A01 T00171022  RH  075%=      5-min Rain = 0
KEA1 191333Z 21003KT 02/M02 A2997 RMK A01 T00181023  RH  074%=      5-min Rain = 0
KEA1 191334Z 21002KT 02/M02 A2997 RMK A01 T00191023  RH  074%=      5-min Rain = 0
KEA1 191335Z 24002KT 02/M02 A2997 RMK A01 T00191023  RH  073%=      5-min Rain = 0
KEA1 191336Z 28003KT 02/M03 A2998 RMK A01 T00191025  RH  073%=      5-min Rain = 0
KEA1 191337Z 28005KT 02/M03 A2998 RMK A01 T00161028  RH  073%=      5-min Rain = 0
KEA1 191338Z 28007KT 01/M03 A2998 RMK A01 T00111031  RH  073%=      5-min Rain = 0
KEA1 191339Z 27006KT 01/M03 A2998 RMK A01 T00091030  RH  075%=      5-min Rain = 0
KEA1 191340Z 27007KT 01/M03 A2998 RMK A01 T00081029  RH  077%=      5-min Rain = 0
KEA1 191341Z 26007KT 01/M03 A2998 RMK A01 T00071028  RH  077%=      5-min Rain = 0
KEA1 191342Z 24006KT 01/M03 A2998 RMK A01 T00091026  RH  077%=      5-min Rain = 0
KEA1 191343Z 23006KT 01/M03 A2998 RMK A01 T00101026  RH  077%=      5-min Rain = 0
KEA1 191344Z 21006KT 01/M03 A2998 RMK A01 T00101026  RH  077%=      5-min Rain = 0
KEA1 191345Z 21006KT 01/M02 A2998 RMK A01 T00131022  RH  077%=      5-min Rain = 0
KEA1 191346Z 20005KT 02/M02 A2998 RMK A01 T00181018  RH  077%=      5-min Rain = 0
KEA1 191347Z 20005KT 02/M02 A2997 RMK A01 T00221018  RH  075%=      5-min Rain = 0
KEA1 191348Z 20005KT 02/M02 A2997 RMK A01 T00231019  RH  073%=      5-min Rain = 0
KEA1 191349Z 20004KT 02/M02 A2997 RMK A01 T00241021  RH  072%=      5-min Rain = 0
KEA1 191350Z 21004KT 02/M02 A2998 RMK A01 T00221023  RH  072%=      5-min Rain = 0
KEA1 191351Z 22003KT 02/M02 A2998 RMK A01 T00211023  RH  072%=      5-min Rain = 0
KEA1 191352Z 23003KT 02/M02 A2998 RMK A01 T00201023  RH  073%=      5-min Rain = 0
KEA1 191353Z 24003KT 02/M02 A2998 RMK A01 T00201022  RH  074%=      5-min Rain = 0
KEA1 191354Z 25003KT 02/M02 A2998 RMK A01 T00201021  RH  074%=      5-min Rain = 0
KEA1 191355Z 26004KT 02/M02 A2998 RMK A01 T00221019  RH  074%=      5-min Rain = 0
KEA1 191356Z 26004KT 02/M02 A2998 RMK A01 T00241018  RH  074%=      5-min Rain = 0
KEA1 191357Z 26005KT 03/M02 A2998 RMK A01 T00271017  RH  073%=      5-min Rain = 0
KEA1 191358Z 25005KT 03/M02 A2998 RMK A01 T00281016  RH  073%=      5-min Rain = 0
KEA1 191359Z 24005KT 03/M02 A2998 RMK A01 T00301015  RH  073%=      5-min Rain = 0
KEA1 191400Z 22005KT 03/M01 A2998 RMK A01 T00321013  RH  072%=      5-min Rain = 0
KEA1 191401Z 22005KT 04/M01 A2998 RMK A01 T00351012  RH  071%=      5-min Rain = 0
KEA1 191402Z 21004KT 04/M01 A2998 RMK A01 T00391010  RH  070%=      5-min Rain = 0
KEA1 191403Z 20004KT 04/M01 A2998 RMK A01 T00431009  RH  069%=      5-min Rain = 0
KEA1 191404Z 22003KT 05/M01 A2998 RMK A01 T00451009  RH  068%=      5-min Rain = 0
KEA1 191405Z 23002KT 05/M01 A2997 RMK A01 T00471008  RH  067%=      5-min Rain = 0
KEA1 191406Z 25002KT 05/M01 A2997 RMK A01 T00501006  RH  067%=      5-min Rain = 0
KEA1 191407Z 26003KT 05/M01 A2997 RMK A01 T00511005  RH  067%=      5-min Rain = 0
KEA1 191408Z 26003KT 05/M00 A2997 RMK A01 T00541004  RH  066%=      5-min Rain = 0
KEA1 191409Z 27003KT 06/M00 A2997 RMK A01 T00561004  RH  065%=      5-min Rain = 0
KEA1 191410Z 28003KT 06/M01 A2997 RMK A01 T00571005  RH  064%=      5-min Rain = 0
KEA1 191411Z 27004KT 06/M01 A2998 RMK A01 T00581006  RH  064%=      5-min Rain = 0
KEA1 191412Z 27004KT 06/M01 A2998 RMK A01 T00581007  RH  063%=      5-min Rain = 0
KEA1 191413Z 28005KT 06/M01 A2998 RMK A01 T00561010  RH  062%=      5-min Rain = 0
KEA1 191414Z 27005KT 05/M01 A2998 RMK A01 T00541011  RH  063%=      5-min Rain = 0
KEA1 191415Z 28005KT 05/M01 A2998 RMK A01 T00511012  RH  064%=      5-min Rain = 0
KEA1 191416Z 27004KT 05/M01 A2998 RMK A01 T00511011  RH  064%=      5-min Rain = 0
KEA1 191417Z 28003KT 05/M01 A2998 RMK A01 T00501011  RH  064%=      5-min Rain = 0
KEA1 191418Z 28004KT 05/M01 A2998 RMK A01 T00501011  RH  065%=      5-min Rain = 0
KEA1 191419Z 30004KT 05/M01 A2998 RMK A01 T00501010  RH  065%=      5-min Rain = 0
KEA1 191420Z 30005KT 05/M01 A2998 RMK A01 T00501011  RH  065%=      5-min Rain = 0
KEA1 191421Z 30006KT 05/M01 A2998 RMK A01 T00511010  RH  065%=      5-min Rain = 0
KEA1 191422Z 30006KT 05/M01 A2998 RMK A01 T00511009  RH  065%=      5-min Rain = 0
KEA1 191423Z 31006KT 05/M01 A2998 RMK A01 T00511009  RH  065%=      5-min Rain = 0
KEA1 191424Z 31007KT 05/M01 A2999 RMK A01 T00511009  RH  065%=      5-min Rain = 0
KEA1 191425Z 31007KT 05/M01 A2999 RMK A01 T00501009  RH  066%=      5-min Rain = 0
KEA1 191426Z 30006KT 05/M01 A2999 RMK A01 T00511007  RH  066%=      5-min Rain = 0
KEA1 191427Z 30007KT 05/M01 A2999 RMK A01 T00511007  RH  066%=      5-min Rain = 0
KEA1 191428Z 29007KT 05/M01 A2999 RMK A01 T00511008  RH  066%=      5-min Rain = 0
KEA1 191429Z 29009KT 05/M01 A2999 RMK A01 T00511008  RH  066%=      5-min Rain = 0
KEA1 191430Z 28007KT 05/M01 A2999 RMK A01 T00501009  RH  065%=      5-min Rain = 0
KEA1 191431Z 28009KT 05/M01 A2999 RMK A01 T00491010  RH  066%=      5-min Rain = 0
KEA1 191432Z 27010KT 05/M01 A2999 RMK A01 T00501010  RH  065%=      5-min Rain = 0
KEA1 191433Z 26008KT 05/M01 A2999 RMK A01 T00521010  RH  064%=      5-min Rain = 0
KEA1 191434Z 27009KT 05/M01 A2999 RMK A01 T00531009  RH  064%=      5-min Rain = 0
KEA1 191435Z 27009KT 05/M01 A2999 RMK A01 T00541008  RH  064%=      5-min Rain = 0
KEA1 191436Z 27008KT 06/M01 A2999 RMK A01 T00561007  RH  064%=      5-min Rain = 0
KEA1 191437Z 27006KT 06/M01 A2999 RMK A01 T00571006  RH  064%=      5-min Rain = 0
KEA1 191438Z 28008KT 06/M01 A2999 RMK A01 T00581006  RH  063%=      5-min Rain = 0
KEA1 191439Z 27008KT 06/M01 A2999 RMK A01 T00601006  RH  063%=      5-min Rain = 0
KEA1 191440Z 27008KT 06/M01 A2999 RMK A01 T00611006  RH  062%=      5-min Rain = 0
KEA1 191441Z 27007KT 06/M01 A2999 RMK A01 T00631006  RH  062%=      5-min Rain = 0
KEA1 191442Z 27007KT 06/M00 A2999 RMK A01 T00641004  RH  062%=      5-min Rain = 0
KEA1 191443Z 26007KT 07/M01 A2999 RMK A01 T00661005  RH  061%=      5-min Rain = 0
KEA1 191444Z 26006KT 07/M01 A2999 RMK A01 T00661006  RH  060%=      5-min Rain = 0
KEA1 191445Z 27005KT 07/M01 A2999 RMK A01 T00661006  RH  060%=      5-min Rain = 0
KEA1 191446Z 27005KT 07/M01 A2999 RMK A01 T00681005  RH  060%=      5-min Rain = 0
KEA1 191447Z 27005KT 07/M01 A2999 RMK A01 T00691005  RH  059%=      5-min Rain = 0
KEA1 191448Z 27006KT 07/M00 A2999 RMK A01 T00711004  RH  059%=      5-min Rain = 0
KEA1 191449Z 28006KT 07/M00 A2999 RMK A01 T00741003  RH  058%=      5-min Rain = 0
KEA1 191450Z 27005KT 08/M00 A2999 RMK A01 T00751004  RH  057%=      5-min Rain = 0
KEA1 191451Z 27005KT 08/M00 A2999 RMK A01 T00761004  RH  057%=      5-min Rain = 0
KEA1 191452Z 26004KT 08/M00 A2999 RMK A01 T00771004  RH  056%=      5-min Rain = 0
KEA1 191453Z 27005KT 08/M00 A2999 RMK A01 T00791003  RH  056%=      5-min Rain = 0
KEA1 191454Z 27005KT 08/M00 A2999 RMK A01 T00821002  RH  056%=      5-min Rain = 0
KEA1 191455Z 27005KT 08/M00 A2999 RMK A01 T00831004  RH  054%=      5-min Rain = 0
KEA1 191456Z 27006KT 08/M00 A2999 RMK A01 T00831003  RH  054%=      5-min Rain = 0
KEA1 191457Z 27005KT 08/M00 A2999 RMK A01 T00841003  RH  054%=      5-min Rain = 0
KEA1 191458Z 27004KT 09/M00 A2999 RMK A01 T00851002  RH  054%=      5-min Rain = 0
KEA1 191459Z 27005KT 09/M00 A2999 RMK A01 T00881002  RH  053%=      5-min Rain = 0
KEA1 191500Z 27004KT 09/M00 A2999 RMK A01 T00881002  RH  053%=      5-min Rain = 0
KEA1 191501Z 27005KT 09/M00 A2999 RMK A01 T00891004  RH  052%=      5-min Rain = 0
KEA1 191502Z 27005KT 09/M01 A2999 RMK A01 T00891005  RH  052%=      5-min Rain = 0
KEA1 191503Z 26004KT 09/M00 A2999 RMK A01 T00901004  RH  052%=      5-min Rain = 0
KEA1 191504Z 26005KT 09/M00 A2999 RMK A01 T00901004  RH  052%=      5-min Rain = 0
KEA1 191505Z 25003KT 09/M00 A2999 RMK A01 T00901004  RH  052%=      5-min Rain = 0
KEA1 191506Z 25003KT 09/M00 A2999 RMK A01 T00911002  RH  052%=      5-min Rain = 0
KEA1 191507Z 26004KT 09/M00 A2999 RMK A01 T00931002  RH  051%=      5-min Rain = 0
KEA1 191508Z 25004KT 10/M00 A2999 RMK A01 T00951002  RH  051%=      5-min Rain = 0
KEA1 191509Z 26005KT 10/M00 A2999 RMK A01 T00961002  RH  051%=      5-min Rain = 0
KEA1 191510Z 26005KT 10/M00 A2998 RMK A01 T00961003  RH  050%=      5-min Rain = 0
KEA1 191511Z 25003KT 10/M00 A2998 RMK A01 T00961002  RH  050%=      5-min Rain = 0
KEA1 191512Z 25003KT 10/M00 A2998 RMK A01 T00961001  RH  051%=      5-min Rain = 0
KEA1 191513Z 25003KT 10/00 A2998 RMK A01 T00990001  RH  051%=      5-min Rain = 0
KEA1 191514Z 25003KT 10/00 A2998 RMK A01 T010000-0  RH  050%=      5-min Rain = 0
KEA1 191515Z 25004KT 10/00 A2998 RMK A01 T01000000  RH  050%=      5-min Rain = 0
KEA1 191516Z 24004KT 10/00 A2998 RMK A01 T01010000  RH  050%=      5-min Rain = 0
KEA1 191517Z 25003KT 10/00 A2998 RMK A01 T01010001  RH  050%=      5-min Rain = 0
KEA1 191518Z 25003KT 10/00 A2998 RMK A01 T01020002  RH  050%=      5-min Rain = 0
KEA1 191519Z 26002KT 10/00 A2998 RMK A01 T01030002  RH  050%=      5-min Rain = 0
KEA1 191520Z 25003KT 10/00 A2998 RMK A01 T01040003  RH  050%=      5-min Rain = 0
KEA1 191521Z 26002KT 11/00 A2998 RMK A01 T01050003  RH  049%=      5-min Rain = 0
KEA1 191522Z 25001KT 11/00 A2998 RMK A01 T01060003  RH  049%=      5-min Rain = 0
KEA1 191523Z 25002KT 11/00 A2998 RMK A01 T01060003  RH  049%=      5-min Rain = 0
KEA1 191524Z 24001KT 11/01 A2998 RMK A01 T01080005  RH  049%=      5-min Rain = 0
KEA1 191525Z 21002KT 11/01 A2998 RMK A01 T01100005  RH  048%=      5-min Rain = 0
KEA1 191526Z 21005KT 11/01 A2998 RMK A01 T01120005  RH  048%=      5-min Rain = 0
KEA1 191527Z 21005KT 12/00 A2998 RMK A01 T01180004  RH  046%=      5-min Rain = 0
KEA1 191528Z 20003KT 13/01 A2998 RMK A01 T01250006  RH  044%=      5-min Rain = 0
KEA1 191529Z 20004KT 13/01 A2998 RMK A01 T01300006  RH  043%=      5-min Rain = 0
KEA1 191530Z 20005KT 13/01 A2998 RMK A01 T01340006  RH  042%=      5-min Rain = 0
KEA1 191531Z 21005KT 14/01 A2998 RMK A01 T01370005  RH  041%=      5-min Rain = 0
KEA1 191532Z 21004KT 14/00 A2998 RMK A01 T01380004  RH  040%=      5-min Rain = 0
KEA1 191533Z 20004KT 14/00 A2998 RMK A01 T01380004  RH  040%=      5-min Rain = 0
KEA1 191534Z 20004KT 14/01 A2998 RMK A01 T01400007  RH  040%=      5-min Rain = 0
KEA1 191535Z 19007KT 14/01 A2998 RMK A01 T01440006  RH  039%=      5-min Rain = 0
KEA1 191536Z 19006KT 15/00 A2998 RMK A01 T01490003  RH  037%=      5-min Rain = 0
KEA1 191537Z 19007KT 15/00 A2998 RMK A01 T01510002  RH  036%=      5-min Rain = 0
KEA1 191538Z 18006KT 15/00 A2998 RMK A01 T01520001  RH  036%=      5-min Rain = 0
KEA1 191539Z 19005KT 15/00 A2998 RMK A01 T01540003  RH  036%=      5-min Rain = 0
KEA1 191540Z 19007KT 16/00 A2998 RMK A01 T01560003  RH  035%=      5-min Rain = 0
KEA1 191541Z 19006KT 16/00 A2998 RMK A01 T01570003  RH  035%=      5-min Rain = 0
KEA1 191542Z 19007KT 16/00 A2998 RMK A01 T01570002  RH  035%=      5-min Rain = 0
KEA1 191543Z 19006KT 16/00 A2998 RMK A01 T01570003  RH  035%=      5-min Rain = 0
KEA1 191544Z 19007KT 16/00 A2998 RMK A01 T01590004  RH  035%=      5-min Rain = 0
KEA1 191545Z 19007KT 16/01 A2998 RMK A01 T01610005  RH  035%=      5-min Rain = 0
KEA1 191546Z 19007KT 16/00 A2998 RMK A01 T01620004  RH  034%=      5-min Rain = 0
KEA1 191547Z 19007KT 16/00 A2998 RMK A01 T01620004  RH  034%=      5-min Rain = 0
KEA1 191548Z 18007KT 16/00 A2998 RMK A01 T01620004  RH  034%=      5-min Rain = 0
KEA1 191549Z 17007KT 16/00 A2998 RMK A01 T01620004  RH  034%=      5-min Rain = 0
KEA1 191550Z 19007KT 16/00 A2998 RMK A01 T01640004  RH  034%=      5-min Rain = 0
KEA1 191551Z 19007KT 17/01 A2998 RMK A01 T01650006  RH  034%=      5-min Rain = 0
KEA1 191552Z 19007KT 17/01 A2998 RMK A01 T01670007  RH  034%=      5-min Rain = 0
KEA1 191553Z 18008KT 17/01 A2998 RMK A01 T01690006  RH  033%=      5-min Rain = 0
KEA1 191554Z 17009KT 17/01 A2998 RMK A01 T01710005  RH  033%=      5-min Rain = 0
KEA1 191555Z 18009KT 17/01 A2998 RMK A01 T01730005  RH  032%=      5-min Rain = 0
KEA1 191556Z 19008KT 18/01 A2998 RMK A01 T01750006  RH  032%=      5-min Rain = 0
KEA1 191557Z 20008KT 18/01 A2998 RMK A01 T01770006  RH  031%=      5-min Rain = 0
KEA1 191558Z 19010KT 18/00 A2998 RMK A01 T01760003  RH  031%=      5-min Rain = 0
KEA1 191559Z 19009KT 18/00 A2998 RMK A01 T01770000  RH  030%=      5-min Rain = 0
KEA1 191600Z 18010KT 18/00 A2998 RMK A01 T01770001  RH  030%=      5-min Rain = 0
KEA1 191601Z 18009KT 18/00 A2998 RMK A01 T01780000  RH  030%=      5-min Rain = 0
KEA1 191602Z 17010KT 18/00 A2997 RMK A01 T01800001  RH  030%=      5-min Rain = 0
KEA1 191603Z 18008KT 18/00 A2997 RMK A01 T01810000  RH  030%=      5-min Rain = 0
KEA1 191604Z 19010KT 18/00 A2997 RMK A01 T01820001  RH  030%=      5-min Rain = 0
KEA1 191605Z 18010KT 18/00 A2997 RMK A01 T018200-0  RH  029%=      5-min Rain = 0
KEA1 191606Z 18008KT 18/00 A2997 RMK A01 T01820000  RH  029%=      5-min Rain = 0
KEA1 191607Z 19010KT 18/00 A2997 RMK A01 T01820000  RH  029%=      5-min Rain = 0
KEA1 191608Z 19013KT 18/M00 A2997 RMK A01 T01831002  RH  029%=      5-min Rain = 0
KEA1 191609Z 18012KT 18/M00 A2997 RMK A01 T01821002  RH  029%=      5-min Rain = 0
KEA1 191610Z 18012KT 18/M00 A2997 RMK A01 T01821002  RH  029%=      5-min Rain = 0
KEA1 191611Z 18012KT 18/M00 A2997 RMK A01 T01821002  RH  029%=      5-min Rain = 0
KEA1 191612Z 17012KT 18/M00 A2997 RMK A01 T01821002  RH  029%=      5-min Rain = 0
KEA1 191613Z 17010KT 19/M00 A2997 RMK A01 T01851003  RH  028%=      5-min Rain = 0
KEA1 191614Z 17010KT 19/00 A2997 RMK A01 T01870000  RH  028%=      5-min Rain = 0
KEA1 191615Z 18010KT 19/00 A2997 RMK A01 T01890000  RH  028%=      5-min Rain = 0
KEA1 191616Z 18012KT 19/M00 A2997 RMK A01 T01891002  RH  028%=      5-min Rain = 0
KEA1 191617Z 17014KT 19/M00 A2997 RMK A01 T01901003  RH  027%=      5-min Rain = 0
KEA1 191618Z 18013KT 19/M01 A2997 RMK A01 T01911005  RH  027%=      5-min Rain = 0
KEA1 191619Z 17014KT 19/M01 A2997 RMK A01 T01911006  RH  027%=      5-min Rain = 0
KEA1 191620Z 17014KT 19/M01 A2997 RMK A01 T01911006  RH  026%=      5-min Rain = 0
KEA1 191621Z 17013KT 19/M01 A2997 RMK A01 T01911006  RH  027%=      5-min Rain = 0
KEA1 191622Z 18012KT 19/M01 A2997 RMK A01 T01911005  RH  027%=      5-min Rain = 0
KEA1 191623Z 19014KT 19/M00 A2997 RMK A01 T01921003  RH  027%=      5-min Rain = 0
KEA1 191624Z 19013KT 19/M01 A2997 RMK A01 T01931006  RH  026%=      5-min Rain = 0
KEA1 191625Z 19012KT 19/M01 A2997 RMK A01 T01931005  RH  026%=      5-min Rain = 0
KEA1 191626Z 18013KT 20/M00 A2997 RMK A01 T01951003  RH  026%=      5-min Rain = 0
KEA1 191627Z 18011KT 20/M00 A2997 RMK A01 T01961004  RH  026%=      5-min Rain = 0
KEA1 191628Z 17013KT 20/M00 A2997 RMK A01 T01981004  RH  026%=      5-min Rain = 0
KEA1 191629Z 18014KT 20/M00 A2997 RMK A01 T01991004  RH  026%=      5-min Rain = 0
KEA1 191630Z 18014KT 20/M00 A2996 RMK A01 T01991004  RH  026%=      5-min Rain = 0
KEA1 191631Z 17015KT 20/M01 A2996 RMK A01 T02001005  RH  025%=      5-min Rain = 0
KEA1 191632Z 17014KT 20/M01 A2996 RMK A01 T02011007  RH  025%=      5-min Rain = 0
KEA1 191633Z 17013KT 20/M01 A2996 RMK A01 T02001007  RH  025%=      5-min Rain = 0
KEA1 191634Z 17012KT 20/M01 A2996 RMK A01 T02011005  RH  025%=      5-min Rain = 0
KEA1 191635Z 18012KT 20/M01 A2996 RMK A01 T02021005  RH  025%=      5-min Rain = 0
KEA1 191636Z 17015KT 20/M01 A2996 RMK A01 T02031005  RH  025%=      5-min Rain = 0
KEA1 191637Z 17016KT 20/M01 A2996 RMK A01 T02021007  RH  025%=      5-min Rain = 0
KEA1 191638Z 17015KT 20/M01 A2996 RMK A01 T02021007  RH  025%=      5-min Rain = 0
KEA1 191639Z 17016KT 20/M01 A2996 RMK A01 T02021007  RH  025%=      5-min Rain = 0
KEA1 191640Z 17016KT 20/M01 A2996 RMK A01 T02021007  RH  025%=      5-min Rain = 0
KEA1 191641Z 17014KT 20/M01 A2996 RMK A01 T02011007  RH  025%=      5-min Rain = 0
KEA1 191642Z 17015KT 20/M01 A2996 RMK A01 T02021006  RH  025%=      5-min Rain = 0
KEA1 191643Z 18016KT 20/M01 A2996 RMK A01 T02031008  RH  024%=      5-min Rain = 0
KEA1 191644Z 18015KT 20/M01 A2996 RMK A01 T02021008  RH  024%=      5-min Rain = 0
KEA1 191645Z 18015KT 20/M01 A2996 RMK A01 T02021008  RH  024%=      5-min Rain = 0
KEA1 191646Z 18016KT 20/M01 A2996 RMK A01 T02021007  RH  025%=      5-min Rain = 0
KEA1 191647Z 18016KT 20/M01 A2996 RMK A01 T02011008  RH  024%=      5-min Rain = 0
KEA1 191648Z 18013KT 20/M01 A2996 RMK A01 T02011008  RH  025%=      5-min Rain = 0
KEA1 191649Z 19014KT 20/M01 A2996 RMK A01 T02031005  RH  025%=      5-min Rain = 0
KEA1 191650Z 18013KT 20/M01 A2996 RMK A01 T02041006  RH  024%=      5-min Rain = 0
KEA1 191651Z 18015KT 21/M01 A2996 RMK A01 T02061008  RH  024%=      5-min Rain = 0
KEA1 191652Z 18015KT 21/M01 A2996 RMK A01 T02061008  RH  024%=      5-min Rain = 0
KEA1 191653Z 17014KT 20/M01 A2996 RMK A01 T02041009  RH  024%=      5-min Rain = 0
KEA1 191654Z 18015KT 21/M01 A2996 RMK A01 T02051008  RH  024%=      5-min Rain = 0
KEA1 191655Z 17014KT 21/M01 A2996 RMK A01 T02051006  RH  024%=      5-min Rain = 0
KEA1 191656Z 18014KT 21/M01 A2996 RMK A01 T02071006  RH  024%=      5-min Rain = 0
KEA1 191657Z 19013KT 21/M01 A2996 RMK A01 T02071007  RH  024%=      5-min Rain = 0
KEA1 191658Z 19015KT 21/M01 A2995 RMK A01 T02061008  RH  024%=      5-min Rain = 0
KEA1 191659Z 18015KT 21/M01 A2996 RMK A01 T02071008  RH  024%=      5-min Rain = 0
KEA1 191700Z 19013KT 21/M01 A2996 RMK A01 T02081008  RH  024%=      5-min Rain = 0
KEA1 191701Z 19014KT 21/M01 A2996 RMK A01 T02091007  RH  024%=      5-min Rain = 0
KEA1 191702Z 19016KT 21/M01 A2995 RMK A01 T02101008  RH  023%=      5-min Rain = 0
KEA1 191703Z 18014KT 21/M01 A2995 RMK A01 T02091009  RH  023%=      5-min Rain = 0
KEA1 191704Z 19017KT 21/M01 A2995 RMK A01 T02081008  RH  023%=      5-min Rain = 0
KEA1 191705Z 19018KT 21/M01 A2995 RMK A01 T02081009  RH  023%=      5-min Rain = 0
KEA1 191706Z 19015KT 21/M01 A2995 RMK A01 T02081010  RH  023%=      5-min Rain = 0
KEA1 191707Z 18017KT 21/M01 A2995 RMK A01 T02101009  RH  023%=      5-min Rain = 0
KEA1 191708Z 18014KT 21/M01 A2995 RMK A01 T02101008  RH  023%=      5-min Rain = 0
KEA1 191709Z 19018KT 21/M01 A2995 RMK A01 T02101009  RH  023%=      5-min Rain = 0
KEA1 191710Z 19017KT 21/M01 A2995 RMK A01 T02101010  RH  023%=      5-min Rain = 0
KEA1 191711Z 19016KT 21/M01 A2995 RMK A01 T02091010  RH  023%=      5-min Rain = 0
KEA1 191712Z 19014KT 21/M01 A2995 RMK A01 T02101007  RH  023%=      5-min Rain = 0
KEA1 191713Z 19016KT 21/M01 A2995 RMK A01 T02121008  RH  023%=      5-min Rain = 0
KEA1 191714Z 19016KT 21/M01 A2995 RMK A01 T02121007  RH  023%=      5-min Rain = 0
KEA1 191715Z 19014KT 21/M01 A2995 RMK A01 T02121007  RH  023%=      5-min Rain = 0
KEA1 191716Z 19015KT 21/M01 A2995 RMK A01 T02131006  RH  023%=      5-min Rain = 0
KEA1 191717Z 18014KT 21/M01 A2995 RMK A01 T02131006  RH  023%=      5-min Rain = 0
KEA1 191718Z 18013KT 21/M01 A2995 RMK A01 T02141005  RH  023%=      5-min Rain = 0
KEA1 191719Z 19015KT 22/M01 A2995 RMK A01 T02151005  RH  023%=      5-min Rain = 0
KEA1 191720Z 19013KT 22/M01 A2995 RMK A01 T02161005  RH  023%=      5-min Rain = 0
KEA1 191721Z 18015KT 22/M01 A2995 RMK A01 T02171005  RH  023%=      5-min Rain = 0
KEA1 191722Z 18013KT 22/M00 A2995 RMK A01 T02191004  RH  023%=      5-min Rain = 0
KEA1 191723Z 18013KT 22/M01 A2995 RMK A01 T02211005  RH  022%=      5-min Rain = 0
KEA1 191724Z 18012KT 22/M01 A2995 RMK A01 T02181006  RH  022%=      5-min Rain = 0
KEA1 191725Z 19014KT 22/M01 A2995 RMK A01 T02181005  RH  023%=      5-min Rain = 0
KEA1 191726Z 20016KT 22/M01 A2994 RMK A01 T02201008  RH  022%=      5-min Rain = 0
KEA1 191727Z 19014KT 22/M01 A2995 RMK A01 T02191006  RH  022%=      5-min Rain = 0
KEA1 191728Z 20016KT 22/M01 A2994 RMK A01 T02211007  RH  022%=      5-min Rain = 0
KEA1 191729Z 19016KT 22/M01 A2994 RMK A01 T02221008  RH  022%=      5-min Rain = 0
KEA1 191730Z 20014KT 22/M01 A2994 RMK A01 T02221007  RH  022%=      5-min Rain = 0
KEA1 191731Z 20014KT 22/M01 A2994 RMK A01 T02221006  RH  022%=      5-min Rain = 0
KEA1 191732Z 19014KT 22/M01 A2994 RMK A01 T02221005  RH  022%=      5-min Rain = 0
KEA1 191733Z 19014KT 22/M01 A2994 RMK A01 T02221005  RH  022%=      5-min Rain = 0
KEA1 191734Z 19014KT 22/M01 A2994 RMK A01 T02221006  RH  022%=      5-min Rain = 0
KEA1 191735Z 19013KT 22/M00 A2994 RMK A01 T02241003  RH  022%=      5-min Rain = 0
KEA1 191736Z 18015KT 23/M00 A2994 RMK A01 T02281003  RH  022%=      5-min Rain = 0
KEA1 191737Z 18015KT 23/M01 A2994 RMK A01 T02261005  RH  022%=      5-min Rain = 0
KEA1 191738Z 18014KT 23/M01 A2994 RMK A01 T02251006  RH  021%=      5-min Rain = 0
KEA1 191739Z 20013KT 23/M00 A2994 RMK A01 T02281002  RH  022%=      5-min Rain = 0
KEA1 191740Z 19013KT 23/M00 A2994 RMK A01 T02301003  RH  021%=      5-min Rain = 0
KEA1 191741Z 19012KT 23/M00 A2994 RMK A01 T02311004  RH  021%=      5-min Rain = 0
KEA1 191742Z 19013KT 23/M00 A2994 RMK A01 T02331004  RH  021%=      5-min Rain = 0
KEA1 191743Z 20015KT 23/M00 A2994 RMK A01 T02291004  RH  021%=      5-min Rain = 0
KEA1 191744Z 19012KT 23/M00 A2994 RMK A01 T02281002  RH  022%=      5-min Rain = 0
KEA1 191745Z 19016KT 23/M00 A2994 RMK A01 T02301001  RH  022%=      5-min Rain = 0
KEA1 191746Z 19016KT 23/M01 A2993 RMK A01 T02301007  RH  021%=      5-min Rain = 0
KEA1 191747Z 19013KT 23/M01 A2993 RMK A01 T02261008  RH  021%=      5-min Rain = 0
KEA1 191748Z 19016KT 23/M01 A2993 RMK A01 T02251005  RH  022%=      5-min Rain = 0
KEA1 191749Z 19014KT 23/M00 A2993 RMK A01 T02281003  RH  022%=      5-min Rain = 0
KEA1 191750Z 19016KT 23/M00 A2993 RMK A01 T02301003  RH  021%=      5-min Rain = 0
KEA1 191751Z 20017KT 23/M00 A2993 RMK A01 T02311004  RH  021%=      5-min Rain = 0
KEA1 191752Z 19018KT 23/M01 A2993 RMK A01 T02291007  RH  021%=      5-min Rain = 0
KEA1 191753Z 19018KT 23/M01 A2993 RMK A01 T02261006  RH  021%=      5-min Rain = 0
KEA1 191754Z 19019KT 23/M01 A2993 RMK A01 T02261005  RH  021%=      5-min Rain = 0
KEA1 191755Z 18016KT 23/M01 A2993 RMK A01 T02271007  RH  021%=      5-min Rain = 0
KEA1 191756Z 18017G24KT 23/M01 A2992 RMK A01 T02281007  RH  021%=      5-min Rain = 0
KEA1 191757Z 19019KT 23/M01 A2993 RMK A01 T02291008  RH  021%=      5-min Rain = 0
KEA1 191758Z 19019KT 23/M01 A2993 RMK A01 T02261008  RH  021%=      5-min Rain = 0
KEA1 191759Z 19017KT 23/M01 A2992 RMK A01 T02251005  RH  022%=      5-min Rain = 0
KEA1 191800Z 19015KT 22/M01 A2993 RMK A01 T02241005  RH  022%=      5-min Rain = 0
KEA1 191801Z 20017KT 23/M00 A2992 RMK A01 T02261004  RH  022%=      5-min Rain = 0
KEA1 191802Z 20019KT 23/M01 A2992 RMK A01 T02291005  RH  021%=      5-min Rain = 0
KEA1 191803Z 20018KT 23/M00 A2992 RMK A01 T02301004  RH  021%=      5-min Rain = 0
KEA1 191804Z 20013KT 23/M00 A2992 RMK A01 T02281004  RH  021%=      5-min Rain = 0
KEA1 191805Z 20014KT 23/M00 A2992 RMK A01 T02301003  RH  021%=      5-min Rain = 0
KEA1 191806Z 20016G21KT 23/M00 A2992 RMK A01 T02331002  RH  021%=      5-min Rain = 0
KEA1 191807Z 20019KT 23/M01 A2992 RMK A01 T02331007  RH  020%=      5-min Rain = 0
KEA1 191808Z 19017KT 23/M01 A2992 RMK A01 T02301007  RH  021%=      5-min Rain = 0
KEA1 191809Z 19019G24KT 23/M01 A2992 RMK A01 T02291007  RH  021%=      5-min Rain = 0
KEA1 191810Z 20019KT 23/M01 A2992 RMK A01 T02291009  RH  020%=      5-min Rain = 0
KEA1 191811Z 20019KT 23/M01 A2992 RMK A01 T02301008  RH  020%=      5-min Rain = 0
KEA1 191812Z 20018KT 23/M01 A2992 RMK A01 T02291010  RH  020%=      5-min Rain = 0
KEA1 191813Z 21016G21KT 23/M01 A2992 RMK A01 T02301008  RH  021%=      5-min Rain = 0
KEA1 191814Z 20016G21KT 23/M01 A2991 RMK A01 T02321008  RH  020%=      5-min Rain = 0
KEA1 191815Z 19017KT 23/M01 A2991 RMK A01 T02321008  RH  020%=      5-min Rain = 0
KEA1 191816Z 19017KT 23/M01 A2991 RMK A01 T02331007  RH  020%=      5-min Rain = 0
KEA1 191817Z 20016G22KT 23/M01 A2991 RMK A01 T02331007  RH  020%=      5-min Rain = 0
KEA1 191818Z 21018KT 24/M01 A2991 RMK A01 T02351011  RH  019%=      5-min Rain = 0
KEA1 191819Z 20018KT 24/M01 A2991 RMK A01 T02351013  RH  019%=      5-min Rain = 0
KEA1 191820Z 21019KT 23/M01 A2991 RMK A01 T02341012  RH  020%=      5-min Rain = 0
KEA1 191821Z 20018KT 23/M01 A2991 RMK A01 T02341012  RH  019%=      5-min Rain = 0
KEA1 191822Z 20019G24KT 23/M01 A2991 RMK A01 T02341011  RH  020%=      5-min Rain = 0
KEA1 191823Z 20019KT 23/M01 A2991 RMK A01 T02341011  RH  020%=      5-min Rain = 0
KEA1 191824Z 21017KT 23/M01 A2991 RMK A01 T02341011  RH  020%=      5-min Rain = 0
KEA1 191825Z 20018KT 24/M01 A2991 RMK A01 T02351010  RH  020%=      5-min Rain = 0
KEA1 191826Z 20018KT 24/M01 A2991 RMK A01 T02361011  RH  019%=      5-min Rain = 0
KEA1 191827Z 20017KT 24/M01 A2991 RMK A01 T02371011  RH  019%=      5-min Rain = 0
KEA1 191828Z 20020KT 24/M01 A2991 RMK A01 T02381012  RH  019%=      5-min Rain = 0
KEA1 191829Z 19020KT 24/M01 A2991 RMK A01 T02371014  RH  019%=      5-min Rain = 0
KEA1 191830Z 18021KT 24/M01 A299 RMK A01 T02361014  RH  019%=      5-min Rain = 0
KEA1 191831Z 19018KT 24/M01 A299 RMK A01 T02351013  RH  019%=      5-min Rain = 0
KEA1 191832Z 19019KT 24/M01 A299 RMK A01 T02361012  RH  019%=      5-min Rain = 0
KEA1 191833Z 19017KT 24/M01 A2991 RMK A01 T02351012  RH  019%=      5-min Rain = 0
KEA1 191834Z 18018KT 24/M01 A299 RMK A01 T02351011  RH  019%=      5-min Rain = 0
KEA1 191835Z 19017G22KT 24/M01 A299 RMK A01 T02361012  RH  019%=      5-min Rain = 0
KEA1 191836Z 20014G19KT 24/M01 A299 RMK A01 T02361011  RH  019%=      5-min Rain = 0
KEA1 191837Z 19016KT 24/M01 A299 RMK A01 T02411010  RH  019%=      5-min Rain = 0
KEA1 191838Z 18016KT 24/M01 A299 RMK A01 T02431011  RH  019%=      5-min Rain = 0
KEA1 191839Z 19016G21KT 24/M01 A299 RMK A01 T02441013  RH  018%=      5-min Rain = 0
KEA1 191840Z 19015KT 25/M01 A299 RMK A01 T02461011  RH  018%=      5-min Rain = 0
KEA1 191841Z 18022G27KT 25/M02 A299 RMK A01 T02481015  RH  018%=      5-min Rain = 0
KEA1 191842Z 19018KT 24/M02 A299 RMK A01 T02431018  RH  018%=      5-min Rain = 0
KEA1 191843Z 18018KT 24/M02 A299 RMK A01 T02401017  RH  018%=      5-min Rain = 0
KEA1 191844Z 18017G22KT 24/M02 A299 RMK A01 T02381017  RH  018%=      5-min Rain = 0
KEA1 191845Z 19019KT 24/M02 A299 RMK A01 T02371015  RH  019%=      5-min Rain = 0
KEA1 191846Z 18017KT 24/M02 A299 RMK A01 T02371015  RH  019%=      5-min Rain = 0
KEA1 191847Z 18016KT 24/M01 A299 RMK A01 T02401013  RH  019%=      5-min Rain = 0
KEA1 191848Z 18018KT 24/M02 A2989 RMK A01 T02411015  RH  018%=      5-min Rain = 0
KEA1 191849Z 18016G23KT 24/M02 A2989 RMK A01 T02371016  RH  018%=      5-min Rain = 0
KEA1 191850Z 18019KT 24/M02 A2989 RMK A01 T02361015  RH  019%=      5-min Rain = 0
KEA1 191851Z 19017KT 24/M02 A2989 RMK A01 T02361017  RH  019%=      5-min Rain = 0
KEA1 191852Z 18020KT 24/M02 A2989 RMK A01 T02361016  RH  019%=      5-min Rain = 0
KEA1 191853Z 19020KT 24/M02 A2989 RMK A01 T02361016  RH  019%=      5-min Rain = 0
KEA1 191854Z 19015KT 24/M02 A2989 RMK A01 T02351016  RH  019%=      5-min Rain = 0
KEA1 191855Z 19016KT 24/M02 A2989 RMK A01 T02361015  RH  019%=      5-min Rain = 0
KEA1 191856Z 19014KT 24/M01 A2989 RMK A01 T02421011  RH  019%=      5-min Rain = 0
KEA1 191857Z 19013G18KT 25/M01 A2989 RMK A01 T02491009  RH  018%=      5-min Rain = 0
KEA1 191858Z 20014G21KT 25/M01 A2989 RMK A01 T02531011  RH  018%=      5-min Rain = 0
KEA1 191859Z 19021KT 25/M01 A2989 RMK A01 T02531014  RH  017%=      5-min Rain = 0
KEA1 191900Z 19018KT 25/M02 A2989 RMK A01 T02481018  RH  017%=      5-min Rain = 0
KEA1 191901Z 20019KT 24/M02 A2989 RMK A01 T02411019  RH  018%=      5-min Rain = 0
KEA1 191902Z 20019KT 24/M02 A2989 RMK A01 T02371018  RH  018%=      5-min Rain = 0
KEA1 191903Z 18020KT 24/M02 A2988 RMK A01 T02391016  RH  018%=      5-min Rain = 0
KEA1 191904Z 18018G23KT 24/M02 A2988 RMK A01 T02391015  RH  018%=      5-min Rain = 0
KEA1 191905Z 19017KT 24/M01 A2989 RMK A01 T02401013  RH  019%=      5-min Rain = 0
KEA1 191906Z 19019KT 24/M01 A2988 RMK A01 T02421013  RH  018%=      5-min Rain = 0
KEA1 191907Z 19016G22KT 24/M01 A2988 RMK A01 T02421013  RH  018%=      5-min Rain = 0
KEA1 191908Z 17018KT 24/M01 A2988 RMK A01 T02441011  RH  019%=      5-min Rain = 0
KEA1 191909Z 19016G21KT 25/M01 A2988 RMK A01 T02451012  RH  018%=      5-min Rain = 0
KEA1 191910Z 19020KT 24/M01 A2988 RMK A01 T02441013  RH  018%=      5-min Rain = 0
KEA1 191911Z 18017KT 24/M02 A2988 RMK A01 T02401015  RH  018%=      5-min Rain = 0
KEA1 191912Z 18018KT 24/M01 A2988 RMK A01 T02391014  RH  019%=      5-min Rain = 0
KEA1 191913Z 19018KT 24/M01 A2988 RMK A01 T02401014  RH  019%=      5-min Rain = 0
KEA1 191914Z 19017G26KT 24/M01 A2988 RMK A01 T02401014  RH  018%=      5-min Rain = 0
KEA1 191915Z 20022KT 24/M01 A2988 RMK A01 T02421014  RH  018%=      5-min Rain = 0
KEA1 191916Z 20023KT 24/M02 A2988 RMK A01 T02421015  RH  018%=      5-min Rain = 0
KEA1 191917Z 20019KT 24/M02 A2988 RMK A01 T02391016  RH  018%=      5-min Rain = 0
KEA1 191918Z 20017KT 24/M01 A2988 RMK A01 T02381014  RH  019%=      5-min Rain = 0
KEA1 191919Z 20015G21KT 24/M01 A2988 RMK A01 T02411012  RH  019%=      5-min Rain = 0
KEA1 191920Z 20018KT 24/M01 A2988 RMK A01 T02431014  RH  018%=      5-min Rain = 0
KEA1 191921Z 19016KT 24/M01 A2988 RMK A01 T02421013  RH  018%=      5-min Rain = 0
KEA1 191922Z 19017KT 24/M01 A2988 RMK A01 T02431014  RH  018%=      5-min Rain = 0
KEA1 191923Z 19019KT 24/M01 A2988 RMK A01 T02421014  RH  018%=      5-min Rain = 0
KEA1 191924Z 20017KT 25/M01 A2988 RMK A01 T02451014  RH  018%=      5-min Rain = 0
KEA1 191925Z 19015KT 24/M02 A2988 RMK A01 T02441016  RH  018%=      5-min Rain = 0
KEA1 191926Z 19016G21KT 25/M01 A2988 RMK A01 T02451013  RH  018%=      5-min Rain = 0
KEA1 191927Z 19021KT 25/M01 A2987 RMK A01 T02471013  RH  018%=      5-min Rain = 0
KEA1 191928Z 18020KT 25/M02 A2987 RMK A01 T02461015  RH  018%=      5-min Rain = 0
KEA1 191929Z 18017G22KT 24/M02 A2987 RMK A01 T02431017  RH  018%=      5-min Rain = 0
KEA1 191930Z 17017KT 24/M02 A2987 RMK A01 T02401016  RH  018%=      5-min Rain = 0
KEA1 191931Z 18020KT 24/M02 A2987 RMK A01 T02401016  RH  018%=      5-min Rain = 0
KEA1 191932Z 19019KT 24/M02 A2987 RMK A01 T02391016  RH  018%=      5-min Rain = 0
KEA1 191933Z 20016KT 24/M02 A2987 RMK A01 T02371017  RH  018%=      5-min Rain = 0
KEA1 191934Z 19013G19KT 24/M02 A2987 RMK A01 T02361016  RH  019%=      5-min Rain = 0
KEA1 191935Z 19017KT 24/M02 A2987 RMK A01 T02361016  RH  019%=      5-min Rain = 0
KEA1 191936Z 19016KT 24/M02 A2987 RMK A01 T02361016  RH  019%=      5-min Rain = 0
KEA1 191937Z 20016KT 24/M02 A2987 RMK A01 T02371016  RH  019%=      5-min Rain = 0
KEA1 191938Z 20014KT 24/M01 A2986 RMK A01 T02391014  RH  019%=      5-min Rain = 0
KEA1 191939Z 19015G21KT 24/M01 A2986 RMK A01 T02431011  RH  019%=      5-min Rain = 0
KEA1 191940Z 19020KT 25/M01 A2986 RMK A01 T02461012  RH  018%=      5-min Rain = 0
KEA1 191941Z 20015G22KT 25/M01 A2986 RMK A01 T02461012  RH  018%=      5-min Rain = 0
KEA1 191942Z 19017G22KT 25/M01 A2986 RMK A01 T02491011  RH  018%=      5-min Rain = 0
KEA1 191943Z 19017G22KT 25/M01 A2986 RMK A01 T02511013  RH  017%=      5-min Rain = 0
KEA1 191944Z 19016KT 25/M01 A2986 RMK A01 T02491014  RH  018%=      5-min Rain = 0
KEA1 191945Z 19020KT 25/M01 A2986 RMK A01 T02491012  RH  018%=      5-min Rain = 0
KEA1 191946Z 17017G22KT 25/M01 A2986 RMK A01 T02481014  RH  018%=      5-min Rain = 0
KEA1 191947Z 19019KT 25/M01 A2986 RMK A01 T02481013  RH  018%=      5-min Rain = 0
KEA1 191948Z 18017G24KT 25/M01 A2986 RMK A01 T02501013  RH  018%=      5-min Rain = 0
KEA1 191949Z 18021KT 25/M01 A2985 RMK A01 T02501013  RH  017%=      5-min Rain = 0
KEA1 191950Z 19022KT 25/M02 A2985 RMK A01 T02481015  RH  018%=      5-min Rain = 0
KEA1 191951Z 19022KT 25/M02 A2985 RMK A01 T02451016  RH  018%=      5-min Rain = 0
KEA1 191952Z 19022KT 24/M02 A2985 RMK A01 T02431017  RH  018%=      5-min Rain = 0
KEA1 191953Z 19018G23KT 24/M02 A2985 RMK A01 T02411017  RH  018%=      5-min Rain = 0
KEA1 191954Z 19016KT 24/M02 A2985 RMK A01 T02421016  RH  018%=      5-min Rain = 0
KEA1 191955Z 20017KT 24/M01 A2985 RMK A01 T02441014  RH  018%=      5-min Rain = 0
KEA1 191956Z 20017KT 25/M01 A2985 RMK A01 T02461014  RH  018%=      5-min Rain = 0
KEA1 191957Z 20017KT 25/M02 A2985 RMK A01 T02451015  RH  018%=      5-min Rain = 0
KEA1 191958Z 20016KT 24/M02 A2985 RMK A01 T02441015  RH  018%=      5-min Rain = 0
KEA1 191959Z 19018KT 25/M01 A2985 RMK A01 T02451013  RH  018%=      5-min Rain = 0
KEA1 192000Z 20016KT 25/M01 A2985 RMK A01 T02471013  RH  018%=      5-min Rain = 0
KEA1 192001Z 19018G24KT 25/M01 A2985 RMK A01 T02471013  RH  018%=      5-min Rain = 0
KEA1 192002Z 19017G22KT 25/M01 A2985 RMK A01 T02461014  RH  018%=      5-min Rain = 0
KEA1 192003Z 19017KT 25/M01 A2985 RMK A01 T02451013  RH  018%=      5-min Rain = 0
KEA1 192004Z 19017KT 25/M01 A2985 RMK A01 T02461012  RH  018%=      5-min Rain = 0
KEA1 192005Z 20017G22KT 25/M01 A2985 RMK A01 T02471012  RH  018%=      5-min Rain = 0
KEA1 192006Z 18015G20KT 25/M01 A2985 RMK A01 T02491010  RH  018%=      5-min Rain = 0
KEA1 192007Z 18015KT 25/M01 A2985 RMK A01 T02511011  RH  018%=      5-min Rain = 0
KEA1 192008Z 19015KT 25/M01 A2985 RMK A01 T02501011  RH  018%=      5-min Rain = 0
KEA1 192009Z 19015KT 25/M01 A2985 RMK A01 T02501012  RH  018%=      5-min Rain = 0
KEA1 192010Z 19013KT 25/M01 A2985 RMK A01 T02501012  RH  018%=      5-min Rain = 0
KEA1 192011Z 19015KT 25/M01 A2984 RMK A01 T02521011  RH  018%=      5-min Rain = 0
KEA1 192012Z 18017G23KT 25/M01 A2984 RMK A01 T02521013  RH  017%=      5-min Rain = 0
KEA1 192013Z 19018KT 25/M02 A2984 RMK A01 T02501015  RH  017%=      5-min Rain = 0
KEA1 192014Z 19016KT 25/M02 A2984 RMK A01 T02481017  RH  017%=      5-min Rain = 0
KEA1 192015Z 20016KT 25/M02 A2984 RMK A01 T02461017  RH  017%=      5-min Rain = 0
KEA1 192016Z 20018KT 25/M02 A2984 RMK A01 T02461019  RH  017%=      5-min Rain = 0
KEA1 192017Z 20019KT 25/M02 A2984 RMK A01 T02451019  RH  017%=      5-min Rain = 0
KEA1 192018Z 20018G23KT 25/M02 A2984 RMK A01 T02451019  RH  017%=      5-min Rain = 0
KEA1 192019Z 20016KT 25/M02 A2984 RMK A01 T02451016  RH  018%=      5-min Rain = 0
KEA1 192020Z 20014KT 25/M02 A2984 RMK A01 T02451015  RH  018%=      5-min Rain = 0
KEA1 192021Z 19013KT 25/M01 A2984 RMK A01 T02461014  RH  018%=      5-min Rain = 0
KEA1 192022Z 19014KT 25/M01 A2984 RMK A01 T02471014  RH  018%=      5-min Rain = 0
KEA1 192023Z 20016KT 25/M02 A2984 RMK A01 T02471015  RH  018%=      5-min Rain = 0
KEA1 192024Z 19016KT 25/M01 A2984 RMK A01 T02481013  RH  018%=      5-min Rain = 0
KEA1 192025Z 18019KT 25/M01 A2983 RMK A01 T02501013  RH  018%=      5-min Rain = 0
KEA1 192026Z 20017KT 25/M01 A2984 RMK A01 T02531012  RH  017%=      5-min Rain = 0
KEA1 192027Z 20015KT 26/M01 A2983 RMK A01 T02551012  RH  017%=      5-min Rain = 0
KEA1 192028Z 19017KT 26/M01 A2983 RMK A01 T02571012  RH  017%=      5-min Rain = 0
KEA1 192029Z 18016KT 26/M01 A2983 RMK A01 T02571012  RH  017%=      5-min Rain = 0
KEA1 192030Z 19016KT 26/M01 A2983 RMK A01 T02581012  RH  017%=      5-min Rain = 0
KEA1 192031Z 19016KT 26/M01 A2983 RMK A01 T02561012  RH  017%=      5-min Rain = 0
KEA1 192032Z 20015KT 26/M01 A2983 RMK A01 T02561012  RH  017%=      5-min Rain = 0
KEA1 192033Z 21017KT 26/M01 A2983 RMK A01 T02581012  RH  017%=      5-min Rain = 0
KEA1 192034Z 20021KT 26/M01 A2983 RMK A01 T02581014  RH  017%=      5-min Rain = 0
KEA1 192035Z 20019KT 26/M02 A2983 RMK A01 T02561015  RH  017%=      5-min Rain = 0
KEA1 192036Z 20015KT 26/M01 A2983 RMK A01 T02551014  RH  017%=      5-min Rain = 0
KEA1 192037Z 20015KT 26/M01 A2983 RMK A01 T02561013  RH  017%=      5-min Rain = 0
KEA1 192038Z 18018KT 26/M01 A2983 RMK A01 T02571013  RH  017%=      5-min Rain = 0
KEA1 192039Z 19020KT 26/M01 A2983 RMK A01 T02591013  RH  017%=      5-min Rain = 0
KEA1 192040Z 19018KT 26/M01 A2983 RMK A01 T02561014  RH  017%=      5-min Rain = 0
KEA1 192041Z 20017KT 25/M01 A2983 RMK A01 T02541014  RH  017%=      5-min Rain = 0
KEA1 192042Z 20015KT 25/M01 A2983 RMK A01 T02541012  RH  017%=      5-min Rain = 0
KEA1 192043Z 21013KT 26/M01 A2983 RMK A01 T02551011  RH  017%=      5-min Rain = 0
KEA1 192044Z 19015KT 26/M01 A2983 RMK A01 T02581010  RH  017%=      5-min Rain = 0
KEA1 192045Z 18018KT 26/M01 A2982 RMK A01 T02581012  RH  017%=      5-min Rain = 0
KEA1 192046Z 19018KT 26/M01 A2982 RMK A01 T02561013  RH  017%=      5-min Rain = 0
KEA1 192047Z 20018KT 26/M01 A2982 RMK A01 T02551014  RH  017%=      5-min Rain = 0
KEA1 192048Z 19017KT 26/M01 A2982 RMK A01 T02551013  RH  017%=      5-min Rain = 0
KEA1 192049Z 19020KT 26/M01 A2982 RMK A01 T02581011  RH  017%=      5-min Rain = 0
KEA1 192050Z 18016KT 26/M01 A2982 RMK A01 T02561012  RH  017%=      5-min Rain = 0
KEA1 192051Z 18016KT 26/M01 A2982 RMK A01 T02561011  RH  017%=      5-min Rain = 0
KEA1 192052Z 19019KT 26/M01 A2982 RMK A01 T02551012  RH  017%=      5-min Rain = 0
KEA1 192053Z 20018KT 26/M01 A2982 RMK A01 T02551014  RH  017%=      5-min Rain = 0
KEA1 192054Z 19015KT 25/M01 A2982 RMK A01 T02541013  RH  017%=      5-min Rain = 0
KEA1 192055Z 19016KT 26/M01 A2982 RMK A01 T02551012  RH  017%=      5-min Rain = 0
KEA1 192056Z 19016KT 26/M01 A2982 RMK A01 T02561012  RH  017%=      5-min Rain = 0
KEA1 192057Z 19016KT 26/M01 A2982 RMK A01 T02551013  RH  017%=      5-min Rain = 0
KEA1 192058Z 19014G21KT 26/M01 A2982 RMK A01 T02571010  RH  017%=      5-min Rain = 0
KEA1 192059Z 20016G22KT 26/M01 A2982 RMK A01 T02591014  RH  017%=      5-min Rain = 0
KEA1 192100Z 20016KT 26/M02 A2982 RMK A01 T02561016  RH  017%=      5-min Rain = 0
KEA1 192101Z 19017KT 25/M01 A2982 RMK A01 T02541014  RH  017%=      5-min Rain = 0
KEA1 192102Z 20020KT 25/M02 A2982 RMK A01 T02531015  RH  017%=      5-min Rain = 0
KEA1 192103Z 20017KT 25/M02 A2982 RMK A01 T02521016  RH  017%=      5-min Rain = 0
KEA1 192104Z 20014G19KT 25/M02 A2982 RMK A01 T02511016  RH  017%=      5-min Rain = 0
KEA1 192105Z 19011G17KT 26/M01 A2982 RMK A01 T02551012  RH  017%=      5-min Rain = 0
KEA1 192106Z 20015KT 26/M01 A2982 RMK A01 T02581012  RH  017%=      5-min Rain = 0
KEA1 192107Z 20019KT 26/M01 A2982 RMK A01 T02591014  RH  016%=      5-min Rain = 0
KEA1 192108Z 20017KT 26/M02 A2982 RMK A01 T02551017  RH  017%=      5-min Rain = 0
KEA1 192109Z 20014KT 25/M02 A2982 RMK A01 T02531016  RH  017%=      5-min Rain = 0
KEA1 192110Z 20014KT 25/M02 A2982 RMK A01 T02531015  RH  017%=      5-min Rain = 0
KEA1 192111Z 19015KT 26/M01 A2982 RMK A01 T02561012  RH  017%=      5-min Rain = 0
KEA1 192112Z 20015G20KT 26/M01 A2982 RMK A01 T02561014  RH  017%=      5-min Rain = 0
KEA1 192113Z 19014KT 26/M01 A2982 RMK A01 T02551014  RH  017%=      5-min Rain = 0
KEA1 192114Z 20018KT 26/M01 A2982 RMK A01 T02551014  RH  017%=      5-min Rain = 0
KEA1 192115Z 19019KT 25/M02 A2982 RMK A01 T02531016  RH  017%=      5-min Rain = 0
KEA1 192116Z 20017KT 25/M02 A2982 RMK A01 T02521017  RH  017%=      5-min Rain = 0
KEA1 192117Z 20013KT 25/M02 A2982 RMK A01 T02501016  RH  017%=      5-min Rain = 0
KEA1 192118Z 19015KT 25/M01 A2982 RMK A01 T02531014  RH  017%=      5-min Rain = 0
KEA1 192119Z 20014KT 25/M02 A2982 RMK A01 T02541015  RH  017%=      5-min Rain = 0
KEA1 192120Z 19017KT 25/M02 A2982 RMK A01 T02541015  RH  017%=      5-min Rain = 0
KEA1 192121Z 19016KT 25/M02 A2982 RMK A01 T02541015  RH  017%=      5-min Rain = 0
KEA1 192122Z 19018KT 25/M02 A2982 RMK A01 T02541015  RH  017%=      5-min Rain = 0
KEA1 192123Z 19016G21KT 25/M02 A2982 RMK A01 T02541015  RH  017%=      5-min Rain = 0
KEA1 192124Z 19019KT 25/M02 A2982 RMK A01 T02541017  RH  017%=      5-min Rain = 0
KEA1 192125Z 20015KT 25/M02 A2982 RMK A01 T02541019  RH  016%=      5-min Rain = 0
KEA1 192126Z 20015KT 26/M02 A2982 RMK A01 T02551018  RH  016%=      5-min Rain = 0
KEA1 192127Z 20016KT 26/M02 A2982 RMK A01 T02571017  RH  016%=      5-min Rain = 0
KEA1 192128Z 20015KT 26/M02 A2982 RMK A01 T02551019  RH  016%=      5-min Rain = 0
KEA1 192129Z 21011KT 26/M02 A2982 RMK A01 T02551016  RH  017%=      5-min Rain = 0
KEA1 192130Z 20011KT 26/M01 A2982 RMK A01 T02561013  RH  017%=      5-min Rain = 0
KEA1 192131Z 19017KT 26/M02 A2982 RMK A01 T02581015  RH  016%=      5-min Rain = 0
KEA1 192132Z 19017KT 26/M02 A2982 RMK A01 T02591015  RH  016%=      5-min Rain = 0
KEA1 192133Z 19015KT 26/M02 A2982 RMK A01 T02581016  RH  016%=      5-min Rain = 0
KEA1 192134Z 20013KT 26/M02 A2982 RMK A01 T02581015  RH  016%=      5-min Rain = 0
KEA1 192135Z 20011G16KT 26/M02 A2982 RMK A01 T02591015  RH  016%=      5-min Rain = 0
KEA1 192136Z 19013G18KT 26/M01 A2982 RMK A01 T02601014  RH  016%=      5-min Rain = 0
KEA1 192137Z 20014KT 26/M01 A2982 RMK A01 T02611014  RH  016%=      5-min Rain = 0
KEA1 192138Z 18016KT 26/M02 A2982 RMK A01 T02611015  RH  016%=      5-min Rain = 0
KEA1 192139Z 18016KT 26/M02 A2981 RMK A01 T02591015  RH  016%=      5-min Rain = 0
KEA1 192140Z 18016KT 26/M02 A2981 RMK A01 T02581016  RH  016%=      5-min Rain = 0
KEA1 192141Z 18014G19KT 26/M02 A2981 RMK A01 T02571016  RH  016%=      5-min Rain = 0
KEA1 192142Z 19018KT 26/M02 A2981 RMK A01 T02591015  RH  016%=      5-min Rain = 0
KEA1 192143Z 18016KT 26/M02 A2981 RMK A01 T02591017  RH  016%=      5-min Rain = 0
KEA1 192144Z 19015KT 26/M02 A2981 RMK A01 T02581016  RH  016%=      5-min Rain = 0
KEA1 192145Z 19014KT 26/M02 A2981 RMK A01 T02581016  RH  016%=      5-min Rain = 0
KEA1 192146Z 20016KT 26/M02 A2981 RMK A01 T02601015  RH  016%=      5-min Rain = 0
KEA1 192147Z 20016KT 26/M02 A2981 RMK A01 T02611017  RH  016%=      5-min Rain = 0
KEA1 192148Z 20014KT 26/M02 A2981 RMK A01 T02591018  RH  016%=      5-min Rain = 0
KEA1 192149Z 19015KT 26/M02 A2981 RMK A01 T02591017  RH  016%=      5-min Rain = 0
KEA1 192150Z 20013KT 26/M02 A2981 RMK A01 T02591016  RH  016%=      5-min Rain = 0
KEA1 192151Z 20017KT 26/M02 A2981 RMK A01 T02601017  RH  016%=      5-min Rain = 0
KEA1 192152Z 19014KT 26/M02 A2981 RMK A01 T02591018  RH  016%=      5-min Rain = 0
KEA1 192153Z 18014KT 26/M02 A2981 RMK A01 T02581018  RH  016%=      5-min Rain = 0
KEA1 192154Z 19017KT 26/M02 A2981 RMK A01 T02591017  RH  016%=      5-min Rain = 0
KEA1 192155Z 19018KT 26/M02 A2981 RMK A01 T02581018  RH  016%=      5-min Rain = 0
KEA1 192156Z 19017KT 26/M02 A2981 RMK A01 T02561018  RH  016%=      5-min Rain = 0
KEA1 192157Z 19015KT 26/M02 A2981 RMK A01 T02561018  RH  016%=      5-min Rain = 0
KEA1 192158Z 19013KT 26/M02 A2981 RMK A01 T02571017  RH  016%=      5-min Rain = 0
KEA1 192159Z 19015KT 26/M02 A2981 RMK A01 T02581016  RH  016%=      5-min Rain = 0
KEA1 192200Z 18018KT 26/M02 A2981 RMK A01 T02581018  RH  016%=      5-min Rain = 0
KEA1 192201Z 19016KT 26/M02 A2981 RMK A01 T02561019  RH  016%=      5-min Rain = 0
KEA1 192202Z 19016KT 26/M02 A2981 RMK A01 T02551019  RH  016%=      5-min Rain = 0
KEA1 192203Z 19013KT 25/M02 A2981 RMK A01 T02541018  RH  017%=      5-min Rain = 0
KEA1 192204Z 19016G21KT 26/M02 A2981 RMK A01 T02551017  RH  017%=      5-min Rain = 0
KEA1 192205Z 19017KT 26/M02 A2981 RMK A01 T02551018  RH  016%=      5-min Rain = 0
KEA1 192206Z 19019KT 25/M02 A2981 RMK A01 T02541018  RH  016%=      5-min Rain = 0
KEA1 192207Z 19020KT 25/M02 A2981 RMK A01 T02531019  RH  016%=      5-min Rain = 0
KEA1 192208Z 18017KT 25/M02 A2981 RMK A01 T02521019  RH  017%=      5-min Rain = 0
KEA1 192209Z 19018KT 25/M02 A2981 RMK A01 T02521019  RH  017%=      5-min Rain = 0
KEA1 192210Z 19017KT 25/M02 A2981 RMK A01 T02521019  RH  017%=      5-min Rain = 0
KEA1 192211Z 19016KT 25/M02 A2981 RMK A01 T02511019  RH  017%=      5-min Rain = 0
KEA1 192212Z 19014KT 25/M02 A2981 RMK A01 T02491020  RH  017%=      5-min Rain = 0
KEA1 192213Z 19017KT 25/M02 A2981 RMK A01 T02491019  RH  017%=      5-min Rain = 0
KEA1 192214Z 19015KT 25/M02 A2981 RMK A01 T02461021  RH  017%=      5-min Rain = 0
KEA1 192215Z 18015KT 25/M02 A2981 RMK A01 T02451021  RH  017%=      5-min Rain = 0
KEA1 192216Z 18016KT 24/M02 A2981 RMK A01 T02431021  RH  017%=      5-min Rain = 0
KEA1 192217Z 18016KT 24/M02 A2981 RMK A01 T02431021  RH  017%=      5-min Rain = 0
KEA1 192218Z 18015KT 24/M02 A2981 RMK A01 T02431021  RH  017%=      5-min Rain = 0
KEA1 192219Z 18016KT 24/M02 A2981 RMK A01 T02431021  RH  017%=      5-min Rain = 0
KEA1 192220Z 18016KT 24/M02 A2981 RMK A01 T02421021  RH  017%=      5-min Rain = 0
KEA1 192221Z 18017KT 24/M02 A2981 RMK A01 T02411022  RH  017%=      5-min Rain = 0
KEA1 192222Z 19016KT 24/M02 A2981 RMK A01 T02411022  RH  017%=      5-min Rain = 0
KEA1 192223Z 18016KT 24/M02 A2981 RMK A01 T02411022  RH  017%=      5-min Rain = 0
KEA1 192224Z 18015KT 24/M02 A2981 RMK A01 T02411022  RH  017%=      5-min Rain = 0
KEA1 192225Z 19016KT 24/M02 A2981 RMK A01 T02411022  RH  017%=      5-min Rain = 0
KEA1 192226Z 18013KT 24/M02 A2981 RMK A01 T02421021  RH  017%=      5-min Rain = 0
KEA1 192227Z 19016KT 24/M02 A2981 RMK A01 T02441021  RH  017%=      5-min Rain = 0
KEA1 192228Z 18017KT 25/M02 A2981 RMK A01 T02451021  RH  017%=      5-min Rain = 0
KEA1 192229Z 18015KT 25/M02 A2981 RMK A01 T02451022  RH  017%=      5-min Rain = 0
KEA1 192230Z 19014KT 25/M02 A2981 RMK A01 T02471021  RH  017%=      5-min Rain = 0
KEA1 192231Z 18011KT 25/M02 A2981 RMK A01 T02481021  RH  017%=      5-min Rain = 0
KEA1 192232Z 19011KT 25/M02 A2981 RMK A01 T02481021  RH  017%=      5-min Rain = 0
KEA1 192233Z 19011KT 25/M02 A2981 RMK A01 T02491021  RH  017%=      5-min Rain = 0
KEA1 192234Z 19013KT 25/M02 A2981 RMK A01 T02491022  RH  017%=      5-min Rain = 0
KEA1 192235Z 19014KT 25/M02 A298 RMK A01 T02491023  RH  016%=      5-min Rain = 0
KEA1 192236Z 19014KT 25/M02 A298 RMK A01 T02491023  RH  016%=      5-min Rain = 0
KEA1 192237Z 19014KT 25/M02 A298 RMK A01 T02501022  RH  017%=      5-min Rain = 0
KEA1 192238Z 19013KT 25/M02 A298 RMK A01 T02481022  RH  017%=      5-min Rain = 0
KEA1 192239Z 19015KT 25/M02 A298 RMK A01 T02471022  RH  017%=      5-min Rain = 0
KEA1 192240Z 18015KT 25/M02 A298 RMK A01 T02461022  RH  017%=      5-min Rain = 0
KEA1 192241Z 19015KT 25/M02 A298 RMK A01 T02461023  RH  017%=      5-min Rain = 0
KEA1 192242Z 19014KT 25/M02 A298 RMK A01 T02461022  RH  017%=      5-min Rain = 0
KEA1 192243Z 18012KT 25/M02 A2981 RMK A01 T02461022  RH  017%=      5-min Rain = 0
KEA1 192244Z 19012KT 25/M02 A2981 RMK A01 T02461021  RH  017%=      5-min Rain = 0
KEA1 192245Z 19012KT 25/M02 A2981 RMK A01 T02461022  RH  017%=      5-min Rain = 0
KEA1 192246Z 19013KT 25/M02 A298 RMK A01 T02451022  RH  017%=      5-min Rain = 0
KEA1 192247Z 19011KT 24/M02 A298 RMK A01 T02421023  RH  017%=      5-min Rain = 0
KEA1 192248Z 19010KT 24/M02 A2981 RMK A01 T02401022  RH  017%=      5-min Rain = 0
KEA1 192249Z 18011KT 24/M02 A2981 RMK A01 T02381022  RH  018%=      5-min Rain = 0
KEA1 192250Z 18011KT 24/M02 A2981 RMK A01 T02361022  RH  018%=      5-min Rain = 0
KEA1 192251Z 19012KT 24/M02 A2981 RMK A01 T02351022  RH  018%=      5-min Rain = 0
KEA1 192252Z 19011KT 23/M02 A2981 RMK A01 T02341023  RH  018%=      5-min Rain = 0
KEA1 192253Z 19009KT 23/M02 A2981 RMK A01 T02331023  RH  018%=      5-min Rain = 0
KEA1 192254Z 19010KT 23/M02 A2981 RMK A01 T02321022  RH  018%=      5-min Rain = 0
KEA1 192255Z 19009KT 23/M02 A2981 RMK A01 T02321022  RH  018%=      5-min Rain = 0
KEA1 192256Z 19009KT 23/M02 A2981 RMK A01 T02311022  RH  018%=      5-min Rain = 0
KEA1 192257Z 19009KT 23/M02 A2981 RMK A01 T02291022  RH  019%=      5-min Rain = 0
KEA1 192258Z 19009KT 23/M02 A2981 RMK A01 T02281022  RH  019%=      5-min Rain = 0
KEA1 192259Z 19009KT 23/M02 A2981 RMK A01 T02271022  RH  019%=      5-min Rain = 0
KEA1 192300Z 19008KT 23/M02 A2981 RMK A01 T02261022  RH  019%=      5-min Rain = 0
KEA1 192301Z 19009KT 23/M02 A2981 RMK A01 T02251022  RH  019%=      5-min Rain = 0
KEA1 192302Z 19008KT 22/M02 A2981 RMK A01 T02241023  RH  019%=      5-min Rain = 0
KEA1 192303Z 19009KT 22/M02 A2981 RMK A01 T02231022  RH  019%=      5-min Rain = 0
KEA1 192304Z 19009KT 22/M02 A2981 RMK A01 T02221022  RH  019%=      5-min Rain = 0
KEA1 192305Z 19008KT 22/M02 A2981 RMK A01 T02211023  RH  020%=      5-min Rain = 0
KEA1 192306Z 19008KT 22/M02 A2981 RMK A01 T02191023  RH  020%=      5-min Rain = 0
KEA1 192307Z 19009KT 22/M02 A2981 RMK A01 T02181023  RH  020%=      5-min Rain = 0
KEA1 192308Z 19009KT 22/M02 A2981 RMK A01 T02161023  RH  020%=      5-min Rain = 0
KEA1 192309Z 18009KT 22/M02 A2981 RMK A01 T02151022  RH  020%=      5-min Rain = 0
KEA1 192310Z 18009KT 21/M02 A2981 RMK A01 T02141023  RH  020%=      5-min Rain = 0
KEA1 192311Z 19009KT 21/M02 A2981 RMK A01 T02131022  RH  021%=      5-min Rain = 0
KEA1 192312Z 19009KT 21/M02 A2981 RMK A01 T02111023  RH  021%=      5-min Rain = 0
KEA1 192313Z 19009KT 21/M02 A2981 RMK A01 T02111022  RH  021%=      5-min Rain = 0
KEA1 192314Z 19009KT 21/M02 A2981 RMK A01 T02111022  RH  021%=      5-min Rain = 0
KEA1 192315Z 19008KT 21/M02 A2981 RMK A01 T02101022  RH  021%=      5-min Rain = 0
KEA1 192316Z 19008KT 21/M02 A2981 RMK A01 T02101022  RH  021%=      5-min Rain = 0
KEA1 192317Z 19008KT 21/M02 A2981 RMK A01 T02101022  RH  021%=      5-min Rain = 0
KEA1 192318Z 19008KT 21/M02 A2981 RMK A01 T02101021  RH  021%=      5-min Rain = 0
KEA1 192319Z 18008KT 21/M02 A2981 RMK A01 T02091022  RH  021%=      5-min Rain = 0
KEA1 192320Z 18007KT 21/M02 A2981 RMK A01 T02081022  RH  021%=      5-min Rain = 0
KEA1 192321Z 18008KT 21/M02 A2981 RMK A01 T02071022  RH  021%=      5-min Rain = 0
KEA1 192322Z 18008KT 21/M02 A2981 RMK A01 T02061022  RH  021%=      5-min Rain = 0
KEA1 192323Z 17008KT 21/M02 A2981 RMK A01 T02051022  RH  022%=      5-min Rain = 0
KEA1 192324Z 15008KT 20/M02 A2981 RMK A01 T02031022  RH  022%=      5-min Rain = 0
KEA1 192325Z 15009KT 20/M02 A2981 RMK A01 T02011022  RH  022%=      5-min Rain = 0
KEA1 192326Z 16009KT 20/M02 A2981 RMK A01 T01981022  RH  022%=      5-min Rain = 0
KEA1 192327Z 17009KT 20/M02 A2981 RMK A01 T01961023  RH  023%=      5-min Rain = 0
KEA1 192328Z 17009KT 20/M02 A2981 RMK A01 T01951023  RH  023%=      5-min Rain = 0
KEA1 192329Z 17009KT 19/M02 A2981 RMK A01 T01941024  RH  023%=      5-min Rain = 0
KEA1 192330Z 17009KT 19/M02 A2981 RMK A01 T01931024  RH  023%=      5-min Rain = 0
KEA1 192331Z 17009KT 19/M02 A2981 RMK A01 T01941024  RH  023%=      5-min Rain = 0
KEA1 192332Z 17009KT 19/M03 A2981 RMK A01 T01921025  RH  023%=      5-min Rain = 0
KEA1 192333Z 17008KT 19/M03 A2981 RMK A01 T01911025  RH  023%=      5-min Rain = 0
KEA1 192334Z 17009KT 19/M03 A2981 RMK A01 T01901025  RH  023%=      5-min Rain = 0
KEA1 192335Z 17009KT 19/M03 A2981 RMK A01 T01881025  RH  023%=      5-min Rain = 0
KEA1 192336Z 17009KT 19/M03 A2981 RMK A01 T01871025  RH  024%=      5-min Rain = 0
KEA1 192337Z 17008KT 19/M03 A2981 RMK A01 T01851025  RH  024%=      5-min Rain = 0
KEA1 192338Z 18008KT 18/M03 A2981 RMK A01 T01841025  RH  024%=      5-min Rain = 0
KEA1 192339Z 18008KT 18/M03 A2981 RMK A01 T01831025  RH  024%=      5-min Rain = 0
KEA1 192340Z 18009KT 18/M03 A2981 RMK A01 T01811026  RH  024%=      5-min Rain = 0
KEA1 192341Z 18008KT 18/M03 A2981 RMK A01 T01801026  RH  025%=      5-min Rain = 0
KEA1 192342Z 18009KT 18/M03 A2981 RMK A01 T01791026  RH  025%=      5-min Rain = 0
KEA1 192343Z 18009KT 18/M03 A2981 RMK A01 T01781026  RH  025%=      5-min Rain = 0
KEA1 192344Z 18009KT 18/M03 A2981 RMK A01 T01771026  RH  025%=      5-min Rain = 0
KEA1 192345Z 18009KT 18/M03 A2981 RMK A01 T01771026  RH  025%=      5-min Rain = 0
KEA1 192346Z 18008KT 18/M03 A2981 RMK A01 T01761026  RH  025%=      5-min Rain = 0
KEA1 192347Z 18009KT 17/M03 A2981 RMK A01 T01741027  RH  025%=      5-min Rain = 0
KEA1 192348Z 18008KT 17/M03 A2981 RMK A01 T01721026  RH  026%=      5-min Rain = 0
KEA1 192349Z 18008KT 17/M03 A2981 RMK A01 T01711026  RH  026%=      5-min Rain = 0
KEA1 192350Z 18009KT 17/M03 A2981 RMK A01 T01701026  RH  026%=      5-min Rain = 0
KEA1 192351Z 19009KT 17/M03 A2981 RMK A01 T01701025  RH  026%=      5-min Rain = 0
KEA1 192352Z 19008KT 17/M03 A2981 RMK A01 T01701025  RH  026%=      5-min Rain = 0
KEA1 192353Z 19008KT 17/M03 A2981 RMK A01 T01691025  RH  026%=      5-min Rain = 0
KEA1 192354Z 19008KT 17/M03 A2981 RMK A01 T01691025  RH  026%=      5-min Rain = 0
KEA1 192355Z 19008KT 17/M03 A2981 RMK A01 T01691025  RH  026%=      5-min Rain = 0
KEA1 192356Z 19009KT 17/M03 A2981 RMK A01 T01691025  RH  026%=      5-min Rain = 0
KEA1 192357Z 19009KT 17/M03 A2981 RMK A01 T01691025  RH  027%=      5-min Rain = 0
KEA1 192358Z 19008KT 17/M03 A2981 RMK A01 T01691025  RH  026%=      5-min Rain = 0
KEA1 192359Z 19008KT 17/M03 A2981 RMK A01 T01681025  RH  026%=      5-min Rain = 0
KEA1 200000Z 19009KT 17/M03 A2981 RMK A01 T01681025  RH  027%=      5-min Rain = 0
KEA1 200001Z 19008KT 17/M03 A2981 RMK A01 T01681025  RH  027%=      5-min Rain = 0
KEA1 200002Z 19008KT 17/M03 A2981 RMK A01 T01681025  RH  027%=      5-min Rain = 0
KEA1 200003Z 18008KT 17/M03 A2981 RMK A01 T01671025  RH  027%=      5-min Rain = 0
KEA1 200004Z 18008KT 17/M03 A2981 RMK A01 T01661026  RH  027%=      5-min Rain = 0
KEA1 200005Z 18008KT 17/M03 A2981 RMK A01 T01661025  RH  027%=      5-min Rain = 0
KEA1 200006Z 18008KT 16/M03 A2981 RMK A01 T01641025  RH  027%=      5-min Rain = 0
KEA1 200007Z 18008KT 16/M03 A2981 RMK A01 T01631026  RH  027%=      5-min Rain = 0
KEA1 200008Z 18008KT 16/M03 A2981 RMK A01 T01631025  RH  027%=      5-min Rain = 0
KEA1 200009Z 17008KT 16/M03 A2981 RMK A01 T01621025  RH  028%=      5-min Rain = 0
KEA1 200010Z 16009KT 16/M03 A2981 RMK A01 T01611025  RH  028%=      5-min Rain = 0
KEA1 200011Z 16010KT 16/M03 A2981 RMK A01 T01591026  RH  028%=      5-min Rain = 0
KEA1 200012Z 17011KT 16/M03 A2981 RMK A01 T01571026  RH  028%=      5-min Rain = 0
KEA1 200013Z 18011KT 16/M03 A2981 RMK A01 T01571025  RH  029%=      5-min Rain = 0
KEA1 200014Z 18012KT 16/M03 A2981 RMK A01 T01581026  RH  028%=      5-min Rain = 0
KEA1 200015Z 18012KT 16/M03 A2981 RMK A01 T01611025  RH  028%=      5-min Rain = 0
KEA1 200016Z 18012KT 16/M03 A2981 RMK A01 T01621026  RH  028%=      5-min Rain = 0
KEA1 200017Z 18011KT 16/M03 A2981 RMK A01 T01631026  RH  027%=      5-min Rain = 0
KEA1 200018Z 18011KT 16/M03 A2981 RMK A01 T01631026  RH  027%=      5-min Rain = 0
KEA1 200019Z 18011KT 16/M03 A2981 RMK A01 T01621026  RH  027%=      5-min Rain = 0
KEA1 200020Z 18011KT 16/M03 A2981 RMK A01 T01621027  RH  027%=      5-min Rain = 0
KEA1 200021Z 18011KT 16/M03 A2981 RMK A01 T01611027  RH  027%=      5-min Rain = 0
KEA1 200022Z 18010KT 16/M03 A2981 RMK A01 T01611027  RH  027%=      5-min Rain = 0
KEA1 200023Z 18011KT 16/M03 A2981 RMK A01 T01611027  RH  027%=      5-min Rain = 0
KEA1 200024Z 18011KT 16/M03 A2981 RMK A01 T01601028  RH  027%=      5-min Rain = 0
KEA1 200025Z 18011KT 16/M03 A2981 RMK A01 T01601028  RH  027%=      5-min Rain = 0
KEA1 200026Z 18011KT 16/M03 A2981 RMK A01 T01591028  RH  028%=      5-min Rain = 0
KEA1 200027Z 18011KT 16/M03 A2981 RMK A01 T01581028  RH  028%=      5-min Rain = 0
KEA1 200028Z 18010KT 16/M03 A2981 RMK A01 T01581028  RH  028%=      5-min Rain = 0
KEA1 200029Z 18010KT 16/M03 A2981 RMK A01 T01581029  RH  028%=      5-min Rain = 0
KEA1 200030Z 18010KT 16/M03 A2981 RMK A01 T01581029  RH  028%=      5-min Rain = 0
KEA1 200031Z 18011KT 16/M03 A2981 RMK A01 T01571029  RH  028%=      5-min Rain = 0
KEA1 200032Z 18011KT 16/M03 A2981 RMK A01 T01561029  RH  028%=      5-min Rain = 0
KEA1 200033Z 18011KT 16/M03 A2981 RMK A01 T01561030  RH  028%=      5-min Rain = 0
KEA1 200034Z 18011KT 16/M03 A2981 RMK A01 T01571029  RH  028%=      5-min Rain = 0
KEA1 200035Z 17011KT 16/M03 A2981 RMK A01 T01571030  RH  028%=      5-min Rain = 0
KEA1 200036Z 18011KT 16/M03 A2981 RMK A01 T01571029  RH  028%=      5-min Rain = 0
KEA1 200037Z 18011KT 16/M03 A2981 RMK A01 T01571029  RH  028%=      5-min Rain = 0
KEA1 200038Z 18011KT 16/M03 A2981 RMK A01 T01571029  RH  028%=      5-min Rain = 0
KEA1 200039Z 18011KT 16/M03 A2981 RMK A01 T01571029  RH  028%=      5-min Rain = 0
KEA1 200040Z 18011KT 16/M03 A2981 RMK A01 T01561029  RH  028%=      5-min Rain = 0
KEA1 200041Z 18010KT 16/M03 A2981 RMK A01 T01551030  RH  028%=      5-min Rain = 0
KEA1 200042Z 18010KT 16/M03 A2981 RMK A01 T01551029  RH  028%=      5-min Rain = 0
KEA1 200043Z 18010KT 15/M03 A2981 RMK A01 T01531030  RH  028%=      5-min Rain = 0
KEA1 200044Z 18010KT 15/M03 A2981 RMK A01 T01521030  RH  028%=      5-min Rain = 0
KEA1 200045Z 18010KT 15/M03 A2981 RMK A01 T01511030  RH  029%=      5-min Rain = 0
KEA1 200046Z 18010KT 15/M03 A2981 RMK A01 T01501029  RH  029%=      5-min Rain = 0
KEA1 200047Z 18011KT 15/M03 A2981 RMK A01 T01491029  RH  029%=      5-min Rain = 0
KEA1 200048Z 18012KT 15/M03 A2981 RMK A01 T01491028  RH  029%=      5-min Rain = 0
KEA1 200049Z 18012KT 15/M03 A2981 RMK A01 T01491027  RH  030%=      5-min Rain = 0
KEA1 200050Z 18012KT 15/M03 A2981 RMK A01 T01491026  RH  030%=      5-min Rain = 0
KEA1 200051Z 18012KT 15/M03 A2981 RMK A01 T01481025  RH  030%=      5-min Rain = 0
KEA1 200052Z 18012KT 15/M02 A2981 RMK A01 T01501023  RH  030%=      5-min Rain = 0
KEA1 200053Z 18012KT 15/M02 A2981 RMK A01 T01521021  RH  030%=      5-min Rain = 0
KEA1 200054Z 18012KT 15/M02 A2981 RMK A01 T01541020  RH  030%=      5-min Rain = 0
KEA1 200055Z 18012KT 16/M02 A2981 RMK A01 T01561018  RH  030%=      5-min Rain = 0
KEA1 200056Z 18013KT 16/M02 A2981 RMK A01 T01581017  RH  030%=      5-min Rain = 0
KEA1 200057Z 18013KT 16/M02 A2981 RMK A01 T01631015  RH  030%=      5-min Rain = 0
KEA1 200058Z 18013KT 17/M01 A2981 RMK A01 T01651014  RH  029%=      5-min Rain = 0
KEA1 200059Z 18012KT 17/M01 A2981 RMK A01 T01681013  RH  029%=      5-min Rain = 0
KEA1 200100Z 18013KT 17/M01 A2981 RMK A01 T01691013  RH  029%=      5-min Rain = 0
KEA1 200101Z 18012KT 17/M01 A2981 RMK A01 T01711013  RH  028%=      5-min Rain = 0
KEA1 200102Z 17011KT 17/M01 A2981 RMK A01 T01721013  RH  028%=      5-min Rain = 0
KEA1 200103Z 17012KT 17/M01 A2981 RMK A01 T01721013  RH  028%=      5-min Rain = 0
KEA1 200104Z 17011KT 17/M01 A2981 RMK A01 T01721014  RH  028%=      5-min Rain = 0
KEA1 200105Z 17011KT 17/M01 A2981 RMK A01 T01711014  RH  028%=      5-min Rain = 0
KEA1 200106Z 17012KT 17/M01 A2981 RMK A01 T01701014  RH  029%=      5-min Rain = 0
KEA1 200107Z 18011KT 17/M01 A2982 RMK A01 T01701014  RH  029%=      5-min Rain = 0
KEA1 200108Z 18012KT 17/M01 A2982 RMK A01 T01691014  RH  029%=      5-min Rain = 0
KEA1 200109Z 18012KT 17/M01 A2982 RMK A01 T01691014  RH  029%=      5-min Rain = 0
KEA1 200110Z 18011KT 17/M01 A2982 RMK A01 T01701014  RH  028%=      5-min Rain = 0
KEA1 200111Z 18009KT 17/M01 A2982 RMK A01 T01701014  RH  028%=      5-min Rain = 0
KEA1 200112Z 18010KT 17/M02 A2982 RMK A01 T01681015  RH  029%=      5-min Rain = 0
KEA1 200113Z 18009KT 17/M02 A2982 RMK A01 T01661015  RH  029%=      5-min Rain = 0
KEA1 200114Z 17010KT 17/M02 A2982 RMK A01 T01651015  RH  029%=      5-min Rain = 0
KEA1 200115Z 17009KT 16/M02 A2981 RMK A01 T01631015  RH  029%=      5-min Rain = 0
KEA1 200116Z 17009KT 16/M02 A2981 RMK A01 T01631015  RH  030%=      5-min Rain = 0
KEA1 200117Z 18010KT 16/M02 A2981 RMK A01 T01621015  RH  030%=      5-min Rain = 0
KEA1 200118Z 18010KT 16/M02 A2982 RMK A01 T01621015  RH  030%=      5-min Rain = 0
KEA1 200119Z 18011KT 16/M02 A2982 RMK A01 T01601015  RH  030%=      5-min Rain = 0
KEA1 200120Z 18011KT 16/M02 A2982 RMK A01 T01601015  RH  030%=      5-min Rain = 0
KEA1 200121Z 18012KT 16/M02 A2982 RMK A01 T01591015  RH  030%=      5-min Rain = 0
KEA1 200122Z 18012KT 16/M02 A2982 RMK A01 T01591015  RH  030%=      5-min Rain = 0
KEA1 200123Z 18011KT 16/M02 A2982 RMK A01 T01581015  RH  031%=      5-min Rain = 0
KEA1 200124Z 18013KT 16/M02 A2982 RMK A01 T01571015  RH  031%=      5-min Rain = 0
KEA1 200125Z 18012KT 16/M02 A2982 RMK A01 T01571015  RH  031%=      5-min Rain = 0
KEA1 200126Z 18013KT 16/M02 A2982 RMK A01 T01581015  RH  031%=      5-min Rain = 0
KEA1 200127Z 18011KT 16/M01 A2982 RMK A01 T01581014  RH  031%=      5-min Rain = 0
KEA1 200128Z 18013KT 16/M01 A2982 RMK A01 T01581014  RH  031%=      5-min Rain = 0
KEA1 200129Z 18013KT 16/M01 A2982 RMK A01 T01581014  RH  031%=      5-min Rain = 0
KEA1 200130Z 18013KT 16/M01 A2982 RMK A01 T01591014  RH  031%=      5-min Rain = 0
KEA1 200131Z 18012KT 16/M01 A2982 RMK A01 T01591014  RH  031%=      5-min Rain = 0
KEA1 200132Z 18012KT 16/M01 A2982 RMK A01 T01591014  RH  031%=      5-min Rain = 0
KEA1 200133Z 18012KT 16/M01 A2982 RMK A01 T01591014  RH  031%=      5-min Rain = 0
KEA1 200134Z 18012KT 16/M01 A2982 RMK A01 T01591014  RH  031%=      5-min Rain = 0
KEA1 200135Z 18014KT 16/M01 A2982 RMK A01 T01591014  RH  031%=      5-min Rain = 0
KEA1 200136Z 18014KT 16/M01 A2982 RMK A01 T01591014  RH  031%=      5-min Rain = 0
KEA1 200137Z 18014KT 16/M01 A2982 RMK A01 T01601014  RH  030%=      5-min Rain = 0
KEA1 200138Z 18013KT 16/M01 A2982 RMK A01 T01601013  RH  030%=      5-min Rain = 0
KEA1 200139Z 18014KT 16/M01 A2982 RMK A01 T01601014  RH  030%=      5-min Rain = 0
KEA1 200140Z 18013KT 16/M01 A2982 RMK A01 T01601014  RH  031%=      5-min Rain = 0
KEA1 200141Z 18013KT 16/M01 A2982 RMK A01 T01581014  RH  031%=      5-min Rain = 0
KEA1 200142Z 18013KT 16/M01 A2982 RMK A01 T01581014  RH  031%=      5-min Rain = 0
KEA1 200143Z 18012KT 16/M01 A2982 RMK A01 T01581013  RH  031%=      5-min Rain = 0
KEA1 200144Z 17012KT 16/M01 A2982 RMK A01 T01571014  RH  031%=      5-min Rain = 0
KEA1 200145Z 17012KT 16/M01 A2982 RMK A01 T01571013  RH  031%=      5-min Rain = 0
KEA1 200146Z 17012KT 16/M01 A2982 RMK A01 T01561014  RH  031%=      5-min Rain = 0
KEA1 200147Z 18013KT 16/M01 A2982 RMK A01 T01551013  RH  031%=      5-min Rain = 0
KEA1 200148Z 17012KT 16/M01 A2982 RMK A01 T01551013  RH  032%=      5-min Rain = 0
KEA1 200149Z 17012KT 16/M01 A2982 RMK A01 T01561013  RH  031%=      5-min Rain = 0
KEA1 200150Z 18013KT 16/M01 A2982 RMK A01 T01561013  RH  031%=      5-min Rain = 0
KEA1 200151Z 17013KT 16/M01 A2982 RMK A01 T01571012  RH  031%=      5-min Rain = 0
KEA1 200152Z 18014KT 16/M01 A2982 RMK A01 T01591011  RH  031%=      5-min Rain = 0
KEA1 200153Z 18013KT 16/M01 A2982 RMK A01 T01601011  RH  031%=      5-min Rain = 0
KEA1 200154Z 18013KT 16/M01 A2982 RMK A01 T01611012  RH  031%=      5-min Rain = 0
KEA1 200155Z 18014KT 16/M01 A2982 RMK A01 T01591012  RH  031%=      5-min Rain = 0
KEA1 200156Z 18013KT 16/M01 A2982 RMK A01 T01591011  RH  031%=      5-min Rain = 0
KEA1 200157Z 18014KT 16/M01 A2982 RMK A01 T01601011  RH  031%=      5-min Rain = 0
KEA1 200158Z 18015KT 16/M01 A2982 RMK A01 T01611011  RH  031%=      5-min Rain = 0
KEA1 200159Z 18014KT 16/M01 A2982 RMK A01 T01611011  RH  031%=      5-min Rain = 0
KEA1 200200Z 18014KT 16/M01 A2982 RMK A01 T01621010  RH  031%=      5-min Rain = 0
KEA1 200201Z 18014KT 16/M01 A2982 RMK A01 T01621010  RH  031%=      5-min Rain = 0
KEA1 200202Z 18013KT 16/M01 A2982 RMK A01 T01631010  RH  031%=      5-min Rain = 0
KEA1 200203Z 18013KT 16/M01 A2982 RMK A01 T01631010  RH  031%=      5-min Rain = 0
KEA1 200204Z 18014KT 16/M01 A2982 RMK A01 T01631010  RH  031%=      5-min Rain = 0
KEA1 200205Z 18013KT 16/M01 A2982 RMK A01 T01631010  RH  031%=      5-min Rain = 0
KEA1 200206Z 19013KT 16/M01 A2982 RMK A01 T01631010  RH  031%=      5-min Rain = 0
KEA1 200207Z 18013KT 16/M01 A2982 RMK A01 T01631010  RH  031%=      5-min Rain = 0
KEA1 200208Z 18014KT 16/M01 A2982 RMK A01 T01641010  RH  031%=      5-min Rain = 0
KEA1 200209Z 19015KT 17/M01 A2982 RMK A01 T01651010  RH  030%=      5-min Rain = 0
KEA1 200210Z 18014KT 17/M01 A2982 RMK A01 T01671009  RH  030%=      5-min Rain = 0
KEA1 200211Z 18015KT 17/M01 A2982 RMK A01 T01671010  RH  030%=      5-min Rain = 0
KEA1 200212Z 18015KT 17/M01 A2982 RMK A01 T01671010  RH  030%=      5-min Rain = 0
KEA1 200213Z 18015G20KT 17/M01 A2982 RMK A01 T01681009  RH  030%=      5-min Rain = 0
KEA1 200214Z 18015KT 17/M01 A2982 RMK A01 T01681009  RH  030%=      5-min Rain = 0
KEA1 200215Z 19016KT 17/M01 A2982 RMK A01 T01691009  RH  030%=      5-min Rain = 0
KEA1 200216Z 19014KT 17/M01 A2982 RMK A01 T01701010  RH  029%=      5-min Rain = 0
KEA1 200217Z 18015KT 17/M01 A2982 RMK A01 T01711010  RH  029%=      5-min Rain = 0
KEA1 200218Z 18015KT 17/M01 A2982 RMK A01 T01711010  RH  029%=      5-min Rain = 0
KEA1 200219Z 18016KT 17/M01 A2982 RMK A01 T01711010  RH  029%=      5-min Rain = 0
KEA1 200220Z 18015KT 17/M01 A2982 RMK A01 T01711010  RH  029%=      5-min Rain = 0
KEA1 200221Z 19015KT 17/M01 A2982 RMK A01 T01711010  RH  029%=      5-min Rain = 0
KEA1 200222Z 18014KT 17/M01 A2982 RMK A01 T01711010  RH  029%=      5-min Rain = 0
KEA1 200223Z 19015KT 17/M01 A2982 RMK A01 T01701010  RH  029%=      5-min Rain = 0
KEA1 200224Z 18015KT 17/M01 A2982 RMK A01 T01711010  RH  029%=      5-min Rain = 0
KEA1 200225Z 19016KT 17/M01 A2982 RMK A01 T01711011  RH  029%=      5-min Rain = 0
KEA1 200226Z 19015KT 17/M01 A2982 RMK A01 T01721011  RH  029%=      5-min Rain = 0
KEA1 200227Z 19017KT 17/M01 A2982 RMK A01 T01721011  RH  029%=      5-min Rain = 0
KEA1 200228Z 18016KT 17/M01 A2982 RMK A01 T01731010  RH  029%=      5-min Rain = 0
KEA1 200229Z 19015KT 17/M01 A2982 RMK A01 T01731011  RH  029%=      5-min Rain = 0
KEA1 200230Z 19015KT 17/M01 A2982 RMK A01 T01721011  RH  029%=      5-min Rain = 0
KEA1 200231Z 19015KT 17/M01 A2982 RMK A01 T01721011  RH  029%=      5-min Rain = 0
KEA1 200232Z 19016KT 17/M01 A2982 RMK A01 T01721011  RH  029%=      5-min Rain = 0
KEA1 200233Z 19015KT 17/M01 A2982 RMK A01 T01721011  RH  029%=      5-min Rain = 0
KEA1 200234Z 18016KT 17/M01 A2982 RMK A01 T01721011  RH  029%=      5-min Rain = 0
KEA1 200235Z 18016KT 17/M01 A2982 RMK A01 T01721011  RH  029%=      5-min Rain = 0
KEA1 200236Z 18016KT 17/M01 A2982 RMK A01 T01711011  RH  029%=      5-min Rain = 0
KEA1 200237Z 19014KT 17/M01 A2982 RMK A01 T01721012  RH  029%=      5-min Rain = 0
KEA1 200238Z 19013KT 17/M01 A2982 RMK A01 T01711012  RH  029%=      5-min Rain = 0
KEA1 200239Z 18014KT 17/M01 A2982 RMK A01 T01701012  RH  029%=      5-min Rain = 0
KEA1 200240Z 18014KT 17/M01 A2982 RMK A01 T01701012  RH  029%=      5-min Rain = 0
KEA1 200241Z 18014KT 17/M01 A2982 RMK A01 T01681012  RH  029%=      5-min Rain = 0
KEA1 200242Z 18014KT 17/M01 A2982 RMK A01 T01671012  RH  029%=      5-min Rain = 0
KEA1 200243Z 18015KT 17/M01 A2982 RMK A01 T01671012  RH  029%=      5-min Rain = 0
KEA1 200244Z 18014KT 17/M01 A2982 RMK A01 T01671012  RH  029%=      5-min Rain = 0
KEA1 200245Z 18014KT 17/M01 A2982 RMK A01 T01671012  RH  029%=      5-min Rain = 0
KEA1 200246Z 18014KT 17/M01 A2982 RMK A01 T01671012  RH  029%=      5-min Rain = 0
KEA1 200247Z 18014KT 17/M01 A2982 RMK A01 T01661013  RH  030%=      5-min Rain = 0
KEA1 200248Z 18014KT 17/M01 A2982 RMK A01 T01661012  RH  030%=      5-min Rain = 0
KEA1 200249Z 18015KT 17/M01 A2982 RMK A01 T01651012  RH  030%=      5-min Rain = 0
KEA1 200250Z 18014KT 17/M01 A2982 RMK A01 T01651012  RH  030%=      5-min Rain = 0
KEA1 200251Z 18014KT 17/M01 A2982 RMK A01 T01661013  RH  030%=      5-min Rain = 0
KEA1 200252Z 18014KT 17/M01 A2982 RMK A01 T01651013  RH  030%=      5-min Rain = 0
KEA1 200253Z 18013KT 17/M01 A2982 RMK A01 T01651013  RH  030%=      5-min Rain = 0
KEA1 200254Z 18013KT 16/M01 A2982 RMK A01 T01641013  RH  030%=      5-min Rain = 0
KEA1 200255Z 18015KT 16/M01 A2982 RMK A01 T01631013  RH  030%=      5-min Rain = 0
KEA1 200256Z 18013KT 16/M01 A2982 RMK A01 T01631013  RH  030%=      5-min Rain = 0
KEA1 200257Z 19013KT 16/M01 A2982 RMK A01 T01631013  RH  030%=      5-min Rain = 0
KEA1 200258Z 18013KT 16/M01 A2982 RMK A01 T01621014  RH  030%=      5-min Rain = 0
KEA1 200259Z 18013KT 16/M01 A2982 RMK A01 T01621013  RH  030%=      5-min Rain = 0
KEA1 200300Z 18013KT 16/M01 A2982 RMK A01 T01611014  RH  030%=      5-min Rain = 0
KEA1 200301Z 18013KT 16/M01 A2982 RMK A01 T01621013  RH  030%=      5-min Rain = 0
KEA1 200302Z 19013KT 16/M01 A2982 RMK A01 T01611014  RH  030%=      5-min Rain = 0
KEA1 200303Z 19013KT 16/M01 A2982 RMK A01 T01611014  RH  030%=      5-min Rain = 0
KEA1 200304Z 18013KT 16/M01 A2982 RMK A01 T01611014  RH  030%=      5-min Rain = 0
KEA1 200305Z 18013KT 16/M01 A2982 RMK A01 T01611014  RH  030%=      5-min Rain = 0
KEA1 200306Z 19014KT 16/M01 A2982 RMK A01 T01611014  RH  030%=      5-min Rain = 0
KEA1 200307Z 18014KT 16/M01 A2982 RMK A01 T01611013  RH  030%=      5-min Rain = 0
KEA1 200308Z 18014KT 16/M01 A2982 RMK A01 T01601014  RH  030%=      5-min Rain = 0
KEA1 200309Z 18014KT 16/M01 A2982 RMK A01 T01601014  RH  030%=      5-min Rain = 0
KEA1 200310Z 19014KT 16/M01 A2982 RMK A01 T01601013  RH  030%=      5-min Rain = 0
KEA1 200311Z 19014KT 16/M01 A2982 RMK A01 T01591014  RH  031%=      5-min Rain = 0
KEA1 200312Z 19013KT 16/M01 A2982 RMK A01 T01581014  RH  031%=      5-min Rain = 0
KEA1 200313Z 18013KT 16/M01 A2982 RMK A01 T01571013  RH  031%=      5-min Rain = 0
KEA1 200314Z 19013KT 16/M01 A2982 RMK A01 T01571013  RH  031%=      5-min Rain = 0
KEA1 200315Z 18013KT 16/M01 A2982 RMK A01 T01561013  RH  031%=      5-min Rain = 0
KEA1 200316Z 18014KT 16/M01 A2982 RMK A01 T01561013  RH  031%=      5-min Rain = 0
KEA1 200317Z 18014KT 16/M01 A2982 RMK A01 T01561013  RH  031%=      5-min Rain = 0
KEA1 200318Z 18014KT 16/M01 A2982 RMK A01 T01561013  RH  031%=      5-min Rain = 0
KEA1 200319Z 18013KT 16/M01 A2982 RMK A01 T01561013  RH  031%=      5-min Rain = 0
KEA1 200320Z 18014KT 16/M01 A2982 RMK A01 T01551014  RH  031%=      5-min Rain = 0
KEA1 200321Z 18013KT 16/M01 A2982 RMK A01 T01551013  RH  032%=      5-min Rain = 0
KEA1 200322Z 18014KT 15/M01 A2982 RMK A01 T01541013  RH  032%=      5-min Rain = 0
KEA1 200323Z 18013KT 15/M01 A2982 RMK A01 T01541013  RH  032%=      5-min Rain = 0
KEA1 200324Z 18013KT 16/M01 A2982 RMK A01 T01551013  RH  032%=      5-min Rain = 0
KEA1 200325Z 18013KT 15/M01 A2982 RMK A01 T01541013  RH  032%=      5-min Rain = 0
KEA1 200326Z 19013KT 16/M01 A2982 RMK A01 T01551013  RH  032%=      5-min Rain = 0
KEA1 200327Z 18013KT 15/M01 A2983 RMK A01 T01541013  RH  032%=      5-min Rain = 0
KEA1 200328Z 18013KT 15/M01 A2983 RMK A01 T01531013  RH  032%=      5-min Rain = 0
KEA1 200329Z 19013KT 15/M01 A2982 RMK A01 T01541012  RH  032%=      5-min Rain = 0
KEA1 200330Z 19012KT 15/M01 A2982 RMK A01 T01531013  RH  032%=      5-min Rain = 0
KEA1 200331Z 19011KT 15/M01 A2982 RMK A01 T01521013  RH  032%=      5-min Rain = 0
KEA1 200332Z 19012KT 15/M01 A2982 RMK A01 T01521013  RH  032%=      5-min Rain = 0
KEA1 200333Z 19012KT 15/M01 A2982 RMK A01 T01511013  RH  032%=      5-min Rain = 0
KEA1 200334Z 19011KT 15/M01 A2982 RMK A01 T01511013  RH  033%=      5-min Rain = 0
KEA1 200335Z 19012KT 15/M01 A2982 RMK A01 T01501013  RH  033%=      5-min Rain = 0
KEA1 200336Z 19011KT 15/M01 A2982 RMK A01 T01501013  RH  033%=      5-min Rain = 0
KEA1 200337Z 19012KT 15/M01 A2982 RMK A01 T01501013  RH  033%=      5-min Rain = 0
KEA1 200338Z 19011KT 15/M01 A2982 RMK A01 T01501013  RH  033%=      5-min Rain = 0
KEA1 200339Z 19012KT 15/M01 A2983 RMK A01 T01501013  RH  033%=      5-min Rain = 0
KEA1 200340Z 19012KT 15/M01 A2983 RMK A01 T01491013  RH  033%=      5-min Rain = 0
KEA1 200341Z 19011KT 15/M01 A2983 RMK A01 T01491012  RH  033%=      5-min Rain = 0
KEA1 200342Z 18012KT 15/M01 A2983 RMK A01 T01481013  RH  033%=      5-min Rain = 0
KEA1 200343Z 18011KT 15/M01 A2983 RMK A01 T01481012  RH  033%=      5-min Rain = 0
KEA1 200344Z 18011KT 15/M01 A2982 RMK A01 T01481013  RH  033%=      5-min Rain = 0
KEA1 200345Z 18012KT 15/M01 A2982 RMK A01 T01471012  RH  033%=      5-min Rain = 0
KEA1 200346Z 19011KT 15/M01 A2982 RMK A01 T01471012  RH  033%=      5-min Rain = 0
KEA1 200347Z 18012KT 15/M01 A2982 RMK A01 T01471012  RH  033%=      5-min Rain = 0
KEA1 200348Z 19012KT 15/M01 A2982 RMK A01 T01471012  RH  033%=      5-min Rain = 0
KEA1 200349Z 19013KT 15/M01 A2982 RMK A01 T01491012  RH  033%=      5-min Rain = 0
KEA1 200350Z 19011KT 15/M01 A2983 RMK A01 T01491012  RH  033%=      5-min Rain = 0
KEA1 200351Z 19012KT 15/M01 A2983 RMK A01 T01491012  RH  033%=      5-min Rain = 0
KEA1 200352Z 18013KT 15/M01 A2983 RMK A01 T01491012  RH  033%=      5-min Rain = 0
KEA1 200353Z 19012KT 15/M01 A2983 RMK A01 T01501012  RH  033%=      5-min Rain = 0
KEA1 200354Z 19013KT 15/M01 A2983 RMK A01 T01501012  RH  033%=      5-min Rain = 0
KEA1 200355Z 19013KT 15/M01 A2983 RMK A01 T01511012  RH  032%=      5-min Rain = 0
KEA1 200356Z 19013KT 15/M01 A2983 RMK A01 T01521012  RH  032%=      5-min Rain = 0
KEA1 200357Z 18015KT 15/M01 A2983 RMK A01 T01521012  RH  032%=      5-min Rain = 0
KEA1 200358Z 18013KT 15/M01 A2983 RMK A01 T01521012  RH  032%=      5-min Rain = 0
KEA1 200359Z 18013KT 15/M01 A2983 RMK A01 T01521012  RH  032%=      5-min Rain = 0
KEA1 200400Z 18014KT 15/M01 A2982 RMK A01 T01521012  RH  032%=      5-min Rain = 0
KEA1 200401Z 18015KT 15/M01 A2982 RMK A01 T01521012  RH  032%=      5-min Rain = 0
KEA1 200402Z 18015KT 15/M01 A2982 RMK A01 T01521012  RH  032%=      5-min Rain = 0
KEA1 200403Z 18014KT 15/M01 A2982 RMK A01 T01521012  RH  033%=      5-min Rain = 0
KEA1 200404Z 18015KT 15/M01 A2982 RMK A01 T01521012  RH  032%=      5-min Rain = 0
KEA1 200405Z 18016KT 15/M01 A2982 RMK A01 T01521012  RH  033%=      5-min Rain = 0
KEA1 200406Z 18014KT 15/M01 A2982 RMK A01 T01511012  RH  033%=      5-min Rain = 0
KEA1 200407Z 18015KT 15/M01 A2982 RMK A01 T01501012  RH  033%=      5-min Rain = 0
KEA1 200408Z 18014KT 15/M01 A2982 RMK A01 T01491012  RH  033%=      5-min Rain = 0
KEA1 200409Z 18015KT 15/M01 A2982 RMK A01 T01491012  RH  033%=      5-min Rain = 0
KEA1 200410Z 18015KT 15/M01 A2982 RMK A01 T01491012  RH  033%=      5-min Rain = 0
KEA1 200411Z 18015KT 15/M01 A2982 RMK A01 T01501013  RH  033%=      5-min Rain = 0
KEA1 200412Z 18015KT 15/M01 A2982 RMK A01 T01501012  RH  033%=      5-min Rain = 0
KEA1 200413Z 18015KT 15/M01 A2982 RMK A01 T01501013  RH  033%=      5-min Rain = 0
KEA1 200414Z 18015KT 15/M01 A2982 RMK A01 T01501013  RH  033%=      5-min Rain = 0
KEA1 200415Z 18014KT 15/M01 A2982 RMK A01 T01501013  RH  033%=      5-min Rain = 0
KEA1 200416Z 18015KT 15/M01 A2982 RMK A01 T01501013  RH  033%=      5-min Rain = 0
KEA1 200417Z 18016KT 15/M01 A2982 RMK A01 T01501013  RH  033%=      5-min Rain = 0
KEA1 200418Z 18016KT 15/M01 A2982 RMK A01 T01511013  RH  032%=      5-min Rain = 0
KEA1 200419Z 18017KT 15/M01 A2982 RMK A01 T01521013  RH  032%=      5-min Rain = 0
KEA1 200420Z 18016KT 15/M01 A2982 RMK A01 T01531013  RH  032%=      5-min Rain = 0
KEA1 200421Z 18017KT 15/M01 A2982 RMK A01 T01531013  RH  032%=      5-min Rain = 0
KEA1 200422Z 19015KT 15/M01 A2983 RMK A01 T01531013  RH  032%=      5-min Rain = 0
KEA1 200423Z 19017KT 15/M01 A2983 RMK A01 T01521013  RH  032%=      5-min Rain = 0
KEA1 200424Z 18016KT 15/M01 A2982 RMK A01 T01521013  RH  032%=      5-min Rain = 0
KEA1 200425Z 18016KT 15/M01 A2983 RMK A01 T01531013  RH  032%=      5-min Rain = 0
KEA1 200426Z 18015KT 15/M01 A2982 RMK A01 T01531013  RH  032%=      5-min Rain = 0
KEA1 200427Z 19015KT 15/M01 A2982 RMK A01 T01531013  RH  032%=      5-min Rain = 0
KEA1 200428Z 18015KT 15/M01 A2982 RMK A01 T01521013  RH  032%=      5-min Rain = 0
KEA1 200429Z 19015KT 15/M01 A2982 RMK A01 T01521013  RH  032%=      5-min Rain = 0
KEA1 200430Z 19014KT 15/M01 A2982 RMK A01 T01521013  RH  032%=      5-min Rain = 0
KEA1 200431Z 19015KT 15/M01 A2982 RMK A01 T01521012  RH  032%=      5-min Rain = 0
KEA1 200432Z 19014KT 15/M01 A2982 RMK A01 T01521013  RH  032%=      5-min Rain = 0
KEA1 200433Z 18013KT 15/M01 A2982 RMK A01 T01521012  RH  032%=      5-min Rain = 0
KEA1 200434Z 19015KT 15/M01 A2982 RMK A01 T01511013  RH  032%=      5-min Rain = 0
KEA1 200435Z 19015KT 15/M01 A2982 RMK A01 T01511012  RH  033%=      5-min Rain = 0
KEA1 200436Z 19015KT 15/M01 A2982 RMK A01 T01521012  RH  033%=      5-min Rain = 0
KEA1 200437Z 19014KT 15/M01 A2982 RMK A01 T01511012  RH  033%=      5-min Rain = 0
KEA1 200438Z 19014KT 15/M01 A2982 RMK A01 T01511012  RH  033%=      5-min Rain = 0
KEA1 200439Z 19014KT 15/M01 A2982 RMK A01 T01511012  RH  033%=      5-min Rain = 0
KEA1 200440Z 19015KT 15/M01 A2982 RMK A01 T01511012  RH  033%=      5-min Rain = 0
KEA1 200441Z 19015KT 15/M01 A2982 RMK A01 T01521011  RH  033%=      5-min Rain = 0
KEA1 200442Z 19015KT 15/M01 A2982 RMK A01 T01521012  RH  032%=      5-min Rain = 0
KEA1 200443Z 19015KT 15/M01 A2982 RMK A01 T01531012  RH  032%=      5-min Rain = 0
KEA1 200444Z 19015KT 15/M01 A2982 RMK A01 T01531011  RH  032%=      5-min Rain = 0
KEA1 200445Z 19015KT 15/M01 A2982 RMK A01 T01521011  RH  033%=      5-min Rain = 0
KEA1 200446Z 19014KT 15/M01 A2982 RMK A01 T01521011  RH  033%=      5-min Rain = 0
KEA1 200447Z 19016KT 15/M01 A2982 RMK A01 T01511011  RH  033%=      5-min Rain = 0
KEA1 200448Z 19015KT 15/M01 A2983 RMK A01 T01511011  RH  033%=      5-min Rain = 0
KEA1 200449Z 19015KT 15/M01 A2983 RMK A01 T01511011  RH  033%=      5-min Rain = 0
KEA1 200450Z 19016KT 15/M01 A2983 RMK A01 T01511011  RH  033%=      5-min Rain = 0
KEA1 200451Z 19014KT 15/M01 A2983 RMK A01 T01511010  RH  033%=      5-min Rain = 0
KEA1 200452Z 19015KT 15/M01 A2983 RMK A01 T01511011  RH  033%=      5-min Rain = 0
KEA1 200453Z 18013KT 15/M01 A2983 RMK A01 T01501011  RH  033%=      5-min Rain = 0
KEA1 200454Z 19015KT 15/M01 A2983 RMK A01 T01491011  RH  033%=      5-min Rain = 0
KEA1 200455Z 19014G19KT 15/M01 A2983 RMK A01 T01491010  RH  034%=      5-min Rain = 0
KEA1 200456Z 18015KT 15/M01 A2983 RMK A01 T01491010  RH  033%=      5-min Rain = 0
KEA1 200457Z 19014KT 15/M01 A2983 RMK A01 T01491010  RH  034%=      5-min Rain = 0
KEA1 200458Z 18013KT 15/M01 A2983 RMK A01 T01481010  RH  034%=      5-min Rain = 0
KEA1 200459Z 18014KT 15/M01 A2983 RMK A01 T01481010  RH  034%=      5-min Rain = 0
KEA1 200500Z 18013KT 15/M01 A2983 RMK A01 T01471010  RH  034%=      5-min Rain = 0
KEA1 200501Z 18014KT 15/M01 A2983 RMK A01 T01481009  RH  034%=      5-min Rain = 0
KEA1 200502Z 18013KT 15/M01 A2983 RMK A01 T01471009  RH  034%=      5-min Rain = 0
KEA1 200503Z 18013KT 15/M01 A2983 RMK A01 T01471010  RH  034%=      5-min Rain = 0
KEA1 200504Z 18013KT 15/M01 A2983 RMK A01 T01471009  RH  034%=      5-min Rain = 0
KEA1 200505Z 19012KT 15/M01 A2983 RMK A01 T01461009  RH  034%=      5-min Rain = 0
KEA1 200506Z 19012KT 15/M01 A2983 RMK A01 T01451009  RH  035%=      5-min Rain = 0
KEA1 200507Z 19013KT 15/M01 A2983 RMK A01 T01451009  RH  035%=      5-min Rain = 0
KEA1 200508Z 18012KT 15/M01 A2983 RMK A01 T01451009  RH  035%=      5-min Rain = 0
KEA1 200509Z 18011KT 15/M01 A2983 RMK A01 T01451008  RH  035%=      5-min Rain = 0
KEA1 200510Z 18012KT 14/M01 A2982 RMK A01 T01441009  RH  035%=      5-min Rain = 0
KEA1 200511Z 18012KT 14/M01 A2982 RMK A01 T01441008  RH  035%=      5-min Rain = 0
KEA1 200512Z 18012KT 14/M01 A2982 RMK A01 T01441008  RH  035%=      5-min Rain = 0
KEA1 200513Z 18011KT 14/M01 A2982 RMK A01 T01441008  RH  035%=      5-min Rain = 0
KEA1 200514Z 18011KT 14/M01 A2982 RMK A01 T01431008  RH  035%=      5-min Rain = 0
KEA1 200515Z 18012KT 14/M01 A2982 RMK A01 T01431008  RH  035%=      5-min Rain = 0
KEA1 200516Z 18012KT 14/M01 A2982 RMK A01 T01431008  RH  035%=      5-min Rain = 0
KEA1 200517Z 18012KT 14/M01 A2982 RMK A01 T01431007  RH  036%=      5-min Rain = 0
KEA1 200518Z 18012KT 14/M01 A2982 RMK A01 T01431008  RH  035%=      5-min Rain = 0
KEA1 200519Z 18013KT 14/M01 A2982 RMK A01 T01431008  RH  036%=      5-min Rain = 0
KEA1 200520Z 18012KT 14/M01 A2982 RMK A01 T01431007  RH  036%=      5-min Rain = 0
KEA1 200521Z 18014KT 14/M01 A2982 RMK A01 T01421007  RH  036%=      5-min Rain = 0
KEA1 200522Z 18013KT 14/M01 A2982 RMK A01 T01431007  RH  036%=      5-min Rain = 0
KEA1 200523Z 18013KT 14/M01 A2982 RMK A01 T01431007  RH  036%=      5-min Rain = 0
KEA1 200524Z 18013KT 14/M01 A2982 RMK A01 T01421007  RH  036%=      5-min Rain = 0
KEA1 200525Z 18013KT 14/M01 A2982 RMK A01 T01421007  RH  036%=      5-min Rain = 0
KEA1 200526Z 18013KT 14/M01 A2982 RMK A01 T01431006  RH  036%=      5-min Rain = 0
KEA1 200527Z 18013KT 14/M01 A2982 RMK A01 T01431006  RH  036%=      5-min Rain = 0
KEA1 200528Z 19013KT 14/M01 A2982 RMK A01 T01421007  RH  036%=      5-min Rain = 0
KEA1 200529Z 19013KT 14/M01 A2982 RMK A01 T01421006  RH  036%=      5-min Rain = 0
KEA1 200530Z 18012KT 14/M01 A2982 RMK A01 T01421007  RH  036%=      5-min Rain = 0
KEA1 200531Z 19012KT 14/M01 A2982 RMK A01 T01421006  RH  036%=      5-min Rain = 0
KEA1 200532Z 19012KT 14/M01 A2982 RMK A01 T01421006  RH  036%=      5-min Rain = 0
KEA1 200533Z 19012KT 14/M01 A2982 RMK A01 T01411007  RH  036%=      5-min Rain = 0
KEA1 200534Z 19013KT 14/M01 A2982 RMK A01 T01411006  RH  036%=      5-min Rain = 0
KEA1 200535Z 19013KT 14/M01 A2982 RMK A01 T01411006  RH  036%=      5-min Rain = 0
KEA1 200536Z 19013KT 14/M01 A2982 RMK A01 T01411006  RH  036%=      5-min Rain = 0
KEA1 200537Z 19013KT 14/M01 A2982 RMK A01 T01421006  RH  036%=      5-min Rain = 0
KEA1 200538Z 19013KT 14/M01 A2982 RMK A01 T01421006  RH  036%=      5-min Rain = 0
KEA1 200539Z 19012KT 14/M01 A2982 RMK A01 T01431005  RH  036%=      5-min Rain = 0
KEA1 200540Z 19013KT 14/M01 A2982 RMK A01 T01431005  RH  036%=      5-min Rain = 0
KEA1 200541Z 19013KT 14/M01 A2982 RMK A01 T01441005  RH  036%=      5-min Rain = 0
KEA1 200542Z 19013KT 14/M01 A2982 RMK A01 T01441005  RH  036%=      5-min Rain = 0
KEA1 200543Z 19014KT 15/M01 A2982 RMK A01 T01461005  RH  036%=      5-min Rain = 0
KEA1 200544Z 19014KT 15/M01 A2982 RMK A01 T01461005  RH  036%=      5-min Rain = 0
KEA1 200545Z 19014KT 15/M00 A2982 RMK A01 T01471004  RH  035%=      5-min Rain = 0
KEA1 200546Z 19015KT 15/M01 A2982 RMK A01 T01471005  RH  035%=      5-min Rain = 0
KEA1 200547Z 19013KT 15/M01 A2982 RMK A01 T01481005  RH  035%=      5-min Rain = 0
KEA1 200548Z 19012KT 15/M00 A2982 RMK A01 T01481004  RH  035%=      5-min Rain = 0
KEA1 200549Z 19013KT 15/M00 A2982 RMK A01 T01471004  RH  035%=      5-min Rain = 0
KEA1 200550Z 19013KT 15/M00 A2982 RMK A01 T01471004  RH  036%=      5-min Rain = 0
KEA1 200551Z 19013KT 15/M00 A2982 RMK A01 T01471004  RH  036%=      5-min Rain = 0
KEA1 200552Z 19012KT 15/M00 A2982 RMK A01 T01471004  RH  036%=      5-min Rain = 0
KEA1 200553Z 19011KT 15/M00 A2982 RMK A01 T01471004  RH  036%=      5-min Rain = 0
KEA1 200554Z 19012KT 15/M00 A2981 RMK A01 T01461004  RH  036%=      5-min Rain = 0
KEA1 200555Z 19011KT 15/M00 A2981 RMK A01 T01461004  RH  036%=      5-min Rain = 0
KEA1 200556Z 19012KT 15/M00 A2981 RMK A01 T01461004  RH  036%=      5-min Rain = 0
KEA1 200557Z 19011KT 15/M00 A2981 RMK A01 T01461004  RH  036%=      5-min Rain = 0
KEA1 200558Z 18012KT 15/M00 A2981 RMK A01 T01461004  RH  036%=      5-min Rain = 0
KEA1 200559Z 18010KT 15/M00 A2981 RMK A01 T01461003  RH  036%=      5-min Rain = 0

Page generated in 0.0701 seconds.